Observation data for Truscott on 11/07/2019      Previous  Date       Current Mesonet Observations  Soil Data  Daily Summary Page  Observations in Plain Language
KTR1 070600Z 23009KT 16/16 A3012 RMK A01 T01640160  RH  098%=      5-min Rain = 0.01
KTR1 070601Z 23008KT 16/16 A3012 RMK A01 T01640160  RH  098%=      5-min Rain = 0
KTR1 070602Z 22007KT 16/16 A3012 RMK A01 T01640160  RH  098%=      5-min Rain = 0.01
KTR1 070603Z 23006KT 16/16 A3012 RMK A01 T01640160  RH  098%=      5-min Rain = 0
KTR1 070604Z 23006KT 16/16 A3012 RMK A01 T01640160  RH  098%=      5-min Rain = 0
KTR1 070605Z 23006KT 16/16 A3013 RMK A01 T01640160  RH  098%=      5-min Rain = 0.01
KTR1 070606Z 24008KT 16/16 A3013 RMK A01 T01640160  RH  098%=      5-min Rain = 0
KTR1 070607Z 24008KT 16/16 A3013 RMK A01 T01640160  RH  098%=      5-min Rain = 0.01
KTR1 070608Z 24008KT 16/16 A3014 RMK A01 T01640160  RH  098%=      5-min Rain = 0
KTR1 070609Z 23007KT 16/16 A3013 RMK A01 T01640160  RH  098%=      5-min Rain = 0
KTR1 070610Z 23008KT 16/16 A3013 RMK A01 T01640160  RH  097%=      5-min Rain = 0
KTR1 070611Z 23008KT 16/16 A3013 RMK A01 T01640160  RH  097%=      5-min Rain = 0.01
KTR1 070612Z 24007KT 17/16 A3013 RMK A01 T01650160  RH  097%=      5-min Rain = 0
KTR1 070613Z 24008KT 16/16 A3013 RMK A01 T01640160  RH  097%=      5-min Rain = 0.01
KTR1 070614Z 24008KT 16/16 A3014 RMK A01 T01640160  RH  097%=      5-min Rain = 0
KTR1 070615Z 25006KT 17/16 A3014 RMK A01 T01650160  RH  097%=      5-min Rain = 0.01
KTR1 070616Z 24007KT 16/16 A3014 RMK A01 T01640160  RH  097%=      5-min Rain = 0
KTR1 070617Z 23007KT 17/16 A3013 RMK A01 T01650160  RH  097%=      5-min Rain = 0
KTR1 070618Z 23006KT 17/16 A3013 RMK A01 T01650160  RH  097%=      5-min Rain = 0.01
KTR1 070619Z 22006KT 17/16 A3013 RMK A01 T01650160  RH  097%=      5-min Rain = 0
KTR1 070620Z 21006KT 17/16 A3013 RMK A01 T01650160  RH  097%=      5-min Rain = 0
KTR1 070621Z 21007KT 17/16 A3013 RMK A01 T01650160  RH  097%=      5-min Rain = 0.01
KTR1 070622Z 21007KT 17/16 A3013 RMK A01 T01650160  RH  097%=      5-min Rain = 0
KTR1 070623Z 22007KT 17/16 A3013 RMK A01 T01650160  RH  097%=      5-min Rain = 0.01
KTR1 070624Z 22007KT 17/16 A3013 RMK A01 T01650160  RH  097%=      5-min Rain = 0
KTR1 070625Z 22008KT 17/16 A3013 RMK A01 T01650160  RH  097%=      5-min Rain = 0
KTR1 070626Z 23009KT 17/16 A3014 RMK A01 T01650160  RH  097%=      5-min Rain = 0.01
KTR1 070627Z 23008KT 17/16 A3014 RMK A01 T01650161  RH  097%=      5-min Rain = 0
KTR1 070628Z 24007KT 17/16 A3014 RMK A01 T01650160  RH  097%=      5-min Rain = 0
KTR1 070629Z 24008KT 17/16 A3014 RMK A01 T01650160  RH  097%=      5-min Rain = 0
KTR1 070630Z 24007KT 17/16 A3014 RMK A01 T01650160  RH  097%=      5-min Rain = 0.01
KTR1 070631Z 23008KT 17/16 A3014 RMK A01 T01650160  RH  097%=      5-min Rain = 0
KTR1 070632Z 24009KT 17/16 A3014 RMK A01 T01650161  RH  097%=      5-min Rain = 0
KTR1 070633Z 23009KT 17/16 A3014 RMK A01 T01650161  RH  097%=      5-min Rain = 0.01
KTR1 070634Z 22007KT 17/16 A3014 RMK A01 T01650160  RH  097%=      5-min Rain = 0
KTR1 070635Z 22009KT 17/16 A3014 RMK A01 T01650160  RH  097%=      5-min Rain = 0
KTR1 070636Z 22008KT 17/16 A3014 RMK A01 T01650160  RH  097%=      5-min Rain = 0.01
KTR1 070637Z 22008KT 17/16 A3014 RMK A01 T01650160  RH  097%=      5-min Rain = 0
KTR1 070638Z 23008KT 17/16 A3014 RMK A01 T01650161  RH  097%=      5-min Rain = 0
KTR1 070639Z 22008KT 17/16 A3014 RMK A01 T01650160  RH  097%=      5-min Rain = 0
KTR1 070640Z 23008KT 17/16 A3014 RMK A01 T01650160  RH  097%=      5-min Rain = 0.01
KTR1 070641Z 23009KT 17/16 A3014 RMK A01 T01650160  RH  097%=      5-min Rain = 0
KTR1 070642Z 22009KT 17/16 A3014 RMK A01 T01650161  RH  097%=      5-min Rain = 0.01
KTR1 070643Z 22010KT 17/16 A3014 RMK A01 T01650160  RH  097%=      5-min Rain = 0
KTR1 070644Z 22009KT 17/16 A3014 RMK A01 T01650160  RH  097%=      5-min Rain = 0
KTR1 070645Z 22010KT 17/16 A3014 RMK A01 T01650160  RH  097%=      5-min Rain = 0.01
KTR1 070646Z 22009KT 17/16 A3013 RMK A01 T01650160  RH  097%=      5-min Rain = 0
KTR1 070647Z 22009KT 17/16 A3013 RMK A01 T01650160  RH  097%=      5-min Rain = 0.01
KTR1 070648Z 22009KT 17/16 A3013 RMK A01 T01650160  RH  097%=      5-min Rain = 0
KTR1 070649Z 22009KT 17/16 A3013 RMK A01 T01650160  RH  097%=      5-min Rain = 0.01
KTR1 070650Z 23009KT 17/16 A3013 RMK A01 T01650160  RH  097%=      5-min Rain = 0
KTR1 070651Z 23009KT 17/16 A3013 RMK A01 T01650160  RH  097%=      5-min Rain = 0.01
KTR1 070652Z 22008KT 17/16 A3014 RMK A01 T01650160  RH  097%=      5-min Rain = 0
KTR1 070653Z 23008KT 17/16 A3014 RMK A01 T01650159  RH  097%=      5-min Rain = 0.01
KTR1 070654Z 23009KT 17/16 A3014 RMK A01 T01650159  RH  097%=      5-min Rain = 0
KTR1 070655Z 23008KT 17/16 A3014 RMK A01 T01650160  RH  097%=      5-min Rain = 0.01
KTR1 070656Z 23007KT 17/16 A3014 RMK A01 T01650160  RH  097%=      5-min Rain = 0
KTR1 070657Z 23007KT 17/16 A3014 RMK A01 T01650160  RH  097%=      5-min Rain = 0.01
KTR1 070658Z 23006KT 17/16 A3014 RMK A01 T01650160  RH  097%=      5-min Rain = 0
KTR1 070659Z 23006KT 17/16 A3013 RMK A01 T01650160  RH  097%=      5-min Rain = 0
KTR1 070700Z 23007KT 17/16 A3013 RMK A01 T01650160  RH  097%=      5-min Rain = 0.01
KTR1 070701Z 23006KT 17/16 A3013 RMK A01 T01650160  RH  097%=      5-min Rain = 0
KTR1 070702Z 23005KT 17/16 A3013 RMK A01 T01650160  RH  097%=      5-min Rain = 0
KTR1 070703Z 23006KT 17/16 A3013 RMK A01 T01650160  RH  097%=      5-min Rain = 0.01
KTR1 070704Z 23006KT 17/16 A3013 RMK A01 T01650160  RH  097%=      5-min Rain = 0
KTR1 070705Z 23006KT 16/16 A3013 RMK A01 T01640160  RH  097%=      5-min Rain = 0.01
KTR1 070706Z 23006KT 16/16 A3013 RMK A01 T01640160  RH  097%=      5-min Rain = 0
KTR1 070707Z 23005KT 16/16 A3013 RMK A01 T01640160  RH  097%=      5-min Rain = 0.01
KTR1 070708Z 22006KT 16/16 A3013 RMK A01 T01640160  RH  097%=      5-min Rain = 0
KTR1 070709Z 22006KT 16/16 A3013 RMK A01 T01640160  RH  097%=      5-min Rain = 0.01
KTR1 070710Z 23006KT 16/16 A3013 RMK A01 T01640160  RH  097%=      5-min Rain = 0
KTR1 070711Z 23006KT 16/16 A3014 RMK A01 T01640160  RH  097%=      5-min Rain = 0.01
KTR1 070712Z 23006KT 16/16 A3014 RMK A01 T01640160  RH  097%=      5-min Rain = 0
KTR1 070713Z 23006KT 16/16 A3013 RMK A01 T01640160  RH  097%=      5-min Rain = 0
KTR1 070714Z 23005KT 16/16 A3013 RMK A01 T01640160  RH  097%=      5-min Rain = 0.01
KTR1 070715Z 23005KT 16/16 A3013 RMK A01 T01640160  RH  097%=      5-min Rain = 0
KTR1 070716Z 23004KT 16/16 A3013 RMK A01 T01640160  RH  097%=      5-min Rain = 0.01
KTR1 070717Z 23004KT 16/16 A3013 RMK A01 T01640160  RH  097%=      5-min Rain = 0
KTR1 070718Z 23005KT 16/16 A3013 RMK A01 T01640160  RH  097%=      5-min Rain = 0
KTR1 070719Z 23003KT 16/16 A3013 RMK A01 T01640160  RH  097%=      5-min Rain = 0.01
KTR1 070720Z 23004KT 16/16 A3013 RMK A01 T01640160  RH  097%=      5-min Rain = 0
KTR1 070721Z 22004KT 16/16 A3013 RMK A01 T01640160  RH  097%=      5-min Rain = 0
KTR1 070722Z 23004KT 16/16 A3013 RMK A01 T01640160  RH  097%=      5-min Rain = 0
KTR1 070723Z 22004KT 16/16 A3013 RMK A01 T01640160  RH  097%=      5-min Rain = 0.01
KTR1 070724Z 23004KT 16/16 A3013 RMK A01 T01640160  RH  097%=      5-min Rain = 0
KTR1 070725Z 23005KT 16/16 A3013 RMK A01 T01640160  RH  097%=      5-min Rain = 0
KTR1 070726Z 24004KT 16/16 A3013 RMK A01 T01640160  RH  097%=      5-min Rain = 0
KTR1 070727Z 25005KT 16/16 A3014 RMK A01 T01640160  RH  097%=      5-min Rain = 0.01
KTR1 070728Z 24004KT 16/16 A3014 RMK A01 T01640160  RH  097%=      5-min Rain = 0
KTR1 070729Z 24004KT 16/16 A3014 RMK A01 T01640160  RH  097%=      5-min Rain = 0
KTR1 070730Z 25004KT 16/16 A3014 RMK A01 T01640160  RH  097%=      5-min Rain = 0
KTR1 070731Z 25005KT 16/16 A3014 RMK A01 T01640160  RH  097%=      5-min Rain = 0
KTR1 070732Z 25004KT 16/16 A3014 RMK A01 T01640160  RH  097%=      5-min Rain = 0
KTR1 070733Z 25004KT 16/16 A3014 RMK A01 T01640160  RH  097%=      5-min Rain = 0.01
KTR1 070734Z 24004KT 16/16 A3014 RMK A01 T01630159  RH  097%=      5-min Rain = 0
KTR1 070735Z 25005KT 16/16 A3014 RMK A01 T01640159  RH  097%=      5-min Rain = 0
KTR1 070736Z 25004KT 16/16 A3014 RMK A01 T01630159  RH  097%=      5-min Rain = 0
KTR1 070737Z 25005KT 16/16 A3014 RMK A01 T01640159  RH  097%=      5-min Rain = 0
KTR1 070738Z 25004KT 16/16 A3014 RMK A01 T01630159  RH  097%=      5-min Rain = 0
KTR1 070739Z 25005KT 16/16 A3014 RMK A01 T01640159  RH  097%=      5-min Rain = 0.01
KTR1 070740Z 26004KT 16/16 A3014 RMK A01 T01630159  RH  097%=      5-min Rain = 0
KTR1 070741Z 26004KT 16/16 A3014 RMK A01 T01630159  RH  097%=      5-min Rain = 0
KTR1 070742Z 27004KT 16/16 A3013 RMK A01 T01630159  RH  097%=      5-min Rain = 0
KTR1 070743Z 27003KT 16/16 A3013 RMK A01 T01630159  RH  097%=      5-min Rain = 0
KTR1 070744Z 28003KT 16/16 A3013 RMK A01 T01630159  RH  097%=      5-min Rain = 0.01
KTR1 070745Z 29004KT 16/16 A3013 RMK A01 T01630159  RH  097%=      5-min Rain = 0
KTR1 070746Z 31005KT 16/16 A3014 RMK A01 T01630159  RH  097%=      5-min Rain = 0
KTR1 070747Z 31007KT 16/16 A3014 RMK A01 T01630159  RH  097%=      5-min Rain = 0
KTR1 070748Z 32010KT 16/16 A3014 RMK A01 T01620158  RH  097%=      5-min Rain = 0
KTR1 070749Z 33020G28KT 16/16 A3015 RMK A01 T01620156  RH  097%=      5-min Rain = 0
KTR1 070750Z 34024KT 15/12 A3015 RMK A01 T01460124  RH  086%=      5-min Rain = 0
KTR1 070751Z 34023G28KT 13/11 A3016 RMK A01 T01290108  RH  087%=      5-min Rain = 0
KTR1 070752Z 34024G30KT 12/10 A3016 RMK A01 T01190101  RH  089%=      5-min Rain = 0
KTR1 070753Z 35022KT 11/10 A3016 RMK A01 T01120097  RH  090%=      5-min Rain = 0.01
KTR1 070754Z 36018G23KT 11/10 A3016 RMK A01 T01080095  RH  092%=      5-min Rain = 0
KTR1 070755Z 35020G25KT 11/10 A3016 RMK A01 T01060096  RH  093%=      5-min Rain = 0
KTR1 070756Z 35017G25KT 10/09 A3016 RMK A01 T01040094  RH  094%=      5-min Rain = 0
KTR1 070757Z 35022G27KT 10/09 A3016 RMK A01 T01030094  RH  094%=      5-min Rain = 0
KTR1 070758Z 34023KT 10/09 A3017 RMK A01 T01010092  RH  094%=      5-min Rain = 0
KTR1 070759Z 34021G27KT 10/09 A3018 RMK A01 T00990089  RH  094%=      5-min Rain = 0
KTR1 070800Z 34023G28KT 10/09 A3018 RMK A01 T00970087  RH  093%=      5-min Rain = 0
KTR1 070801Z 35018G26KT 10/09 A3018 RMK A01 T00960086  RH  094%=      5-min Rain = 0
KTR1 070802Z 34020G28KT 09/08 A3018 RMK A01 T00940084  RH  094%=      5-min Rain = 0
KTR1 070803Z 35022G31KT 09/08 A3018 RMK A01 T00920082  RH  093%=      5-min Rain = 0
KTR1 070804Z 35019KT 09/08 A3018 RMK A01 T00910080  RH  093%=      5-min Rain = 0
KTR1 070805Z 35019G27KT 09/08 A3018 RMK A01 T00900080  RH  094%=      5-min Rain = 0
KTR1 070806Z 35020KT 09/08 A3018 RMK A01 T00890079  RH  094%=      5-min Rain = 0
KTR1 070807Z 35021G28KT 09/08 A3018 RMK A01 T00880078  RH  094%=      5-min Rain = 0
KTR1 070808Z 35020G25KT 09/08 A3019 RMK A01 T00870077  RH  094%=      5-min Rain = 0
KTR1 070809Z 35017KT 09/08 A3019 RMK A01 T00870078  RH  094%=      5-min Rain = 0
KTR1 070810Z 35016KT 09/08 A3019 RMK A01 T00870078  RH  095%=      5-min Rain = 0
KTR1 070811Z 35015G20KT 09/08 A3019 RMK A01 T00870079  RH  095%=      5-min Rain = 0
KTR1 070812Z 36017G23KT 09/08 A3019 RMK A01 T00860078  RH  094%=      5-min Rain = 0
KTR1 070813Z 35020G25KT 09/08 A3019 RMK A01 T00850077  RH  094%=      5-min Rain = 0
KTR1 070814Z 35018G23KT 09/08 A302 RMK A01 T00850076  RH  094%=      5-min Rain = 0
KTR1 070815Z 36020KT 09/08 A302 RMK A01 T00850076  RH  094%=      5-min Rain = 0
KTR1 070816Z 35018KT 09/08 A302 RMK A01 T00850076  RH  094%=      5-min Rain = 0
KTR1 070817Z 35020G25KT 08/08 A302 RMK A01 T00840075  RH  094%=      5-min Rain = 0
KTR1 070818Z 34018KT 08/07 A302 RMK A01 T00840074  RH  094%=      5-min Rain = 0
KTR1 070819Z 36015KT 08/07 A302 RMK A01 T00830074  RH  094%=      5-min Rain = 0
KTR1 070820Z 36019G24KT 08/07 A302 RMK A01 T00830074  RH  094%=      5-min Rain = 0
KTR1 070821Z 35020G26KT 08/07 A3021 RMK A01 T00820072  RH  093%=      5-min Rain = 0.01
KTR1 070822Z 35021KT 08/07 A3021 RMK A01 T00810070  RH  093%=      5-min Rain = 0
KTR1 070823Z 34021G28KT 08/07 A3021 RMK A01 T00790067  RH  092%=      5-min Rain = 0
KTR1 070824Z 35019G27KT 08/07 A3021 RMK A01 T00780066  RH  092%=      5-min Rain = 0
KTR1 070825Z 36017KT 08/07 A302 RMK A01 T00770065  RH  092%=      5-min Rain = 0
KTR1 070826Z 00018G25KT 08/07 A302 RMK A01 T00760065  RH  093%=      5-min Rain = 0
KTR1 070827Z 00016KT 08/07 A3019 RMK A01 T00760065  RH  093%=      5-min Rain = 0
KTR1 070828Z 01020G26KT 08/07 A3019 RMK A01 T00750065  RH  093%=      5-min Rain = 0
KTR1 070829Z 01020G28KT 08/06 A3018 RMK A01 T00750064  RH  093%=      5-min Rain = 0
KTR1 070830Z 01018G24KT 07/06 A3019 RMK A01 T00740063  RH  093%=      5-min Rain = 0
KTR1 070831Z 01016KT 07/06 A3019 RMK A01 T00740063  RH  093%=      5-min Rain = 0
KTR1 070832Z 35015KT 07/06 A302 RMK A01 T00730064  RH  094%=      5-min Rain = 0.01
KTR1 070833Z 35018KT 07/06 A3021 RMK A01 T00730064  RH  094%=      5-min Rain = 0
KTR1 070834Z 35016KT 07/06 A3021 RMK A01 T00730064  RH  094%=      5-min Rain = 0
KTR1 070835Z 35015G20KT 07/07 A3021 RMK A01 T00730065  RH  095%=      5-min Rain = 0
KTR1 070836Z 35014KT 07/07 A3021 RMK A01 T00730065  RH  095%=      5-min Rain = 0
KTR1 070837Z 00016G21KT 07/07 A3021 RMK A01 T00740066  RH  095%=      5-min Rain = 0
KTR1 070838Z 35019G25KT 07/06 A3021 RMK A01 T00730064  RH  094%=      5-min Rain = 0
KTR1 070839Z 34016G22KT 07/07 A3021 RMK A01 T00730065  RH  095%=      5-min Rain = 0.01
KTR1 070840Z 35015KT 07/07 A3021 RMK A01 T00730065  RH  094%=      5-min Rain = 0
KTR1 070841Z 35017G24KT 07/06 A3021 RMK A01 T00730064  RH  094%=      5-min Rain = 0
KTR1 070842Z 36020KT 07/06 A3021 RMK A01 T00720062  RH  093%=      5-min Rain = 0
KTR1 070843Z 35018KT 07/06 A3022 RMK A01 T00710061  RH  093%=      5-min Rain = 0
KTR1 070844Z 34020G27KT 07/06 A3022 RMK A01 T00700061  RH  094%=      5-min Rain = 0
KTR1 070845Z 34022KT 07/06 A3022 RMK A01 T00690059  RH  093%=      5-min Rain = 0
KTR1 070846Z 35023G28KT 07/06 A3022 RMK A01 T00680057  RH  093%=      5-min Rain = 0
KTR1 070847Z 34021G27KT 07/06 A3022 RMK A01 T00670056  RH  093%=      5-min Rain = 0
KTR1 070848Z 35020G25KT 07/06 A3021 RMK A01 T00660055  RH  093%=      5-min Rain = 0
KTR1 070849Z 35020KT 07/05 A3021 RMK A01 T00650054  RH  093%=      5-min Rain = 0
KTR1 070850Z 34022G27KT 06/05 A3021 RMK A01 T00640054  RH  093%=      5-min Rain = 0
KTR1 070851Z 34019KT 06/05 A3021 RMK A01 T00640053  RH  093%=      5-min Rain = 0
KTR1 070852Z 35018KT 06/05 A3021 RMK A01 T00630054  RH  094%=      5-min Rain = 0
KTR1 070853Z 35021G27KT 06/05 A3022 RMK A01 T00630054  RH  094%=      5-min Rain = 0
KTR1 070854Z 35020KT 06/05 A3022 RMK A01 T00630053  RH  094%=      5-min Rain = 0
KTR1 070855Z 35019G24KT 06/05 A3022 RMK A01 T00630054  RH  094%=      5-min Rain = 0
KTR1 070856Z 35018KT 06/05 A3022 RMK A01 T00630053  RH  094%=      5-min Rain = 0
KTR1 070857Z 34018G24KT 06/05 A3022 RMK A01 T00620053  RH  094%=      5-min Rain = 0
KTR1 070858Z 35021KT 06/05 A3022 RMK A01 T00620052  RH  094%=      5-min Rain = 0
KTR1 070859Z 35020G27KT 06/05 A3022 RMK A01 T00610051  RH  093%=      5-min Rain = 0
KTR1 070900Z 35019G26KT 06/05 A3022 RMK A01 T00610051  RH  093%=      5-min Rain = 0
KTR1 070901Z 35023G28KT 06/05 A3022 RMK A01 T00610050  RH  093%=      5-min Rain = 0.01
KTR1 070902Z 36022G28KT 06/05 A3022 RMK A01 T00600049  RH  093%=      5-min Rain = 0
KTR1 070903Z 35022KT 06/05 A3022 RMK A01 T00600049  RH  093%=      5-min Rain = 0
KTR1 070904Z 35020KT 06/05 A3022 RMK A01 T00600049  RH  093%=      5-min Rain = 0
KTR1 070905Z 36021KT 06/05 A3022 RMK A01 T00590049  RH  093%=      5-min Rain = 0
KTR1 070906Z 36019G26KT 06/05 A3023 RMK A01 T00600049  RH  093%=      5-min Rain = 0
KTR1 070907Z 35019G24KT 06/05 A3023 RMK A01 T00590049  RH  093%=      5-min Rain = 0
KTR1 070908Z 36018KT 06/05 A3023 RMK A01 T00590049  RH  093%=      5-min Rain = 0
KTR1 070909Z 35020KT 06/05 A3023 RMK A01 T00590049  RH  093%=      5-min Rain = 0
KTR1 070910Z 36021KT 06/05 A3024 RMK A01 T00590049  RH  093%=      5-min Rain = 0
KTR1 070911Z 35023KT 06/05 A3024 RMK A01 T00590048  RH  093%=      5-min Rain = 0
KTR1 070912Z 35018G23KT 06/05 A3024 RMK A01 T00590048  RH  092%=      5-min Rain = 0
KTR1 070913Z 36017G23KT 06/05 A3024 RMK A01 T00590049  RH  093%=      5-min Rain = 0
KTR1 070914Z 36018KT 06/05 A3024 RMK A01 T00590049  RH  094%=      5-min Rain = 0
KTR1 070915Z 36015KT 06/05 A3023 RMK A01 T00590050  RH  094%=      5-min Rain = 0
KTR1 070916Z 35016G21KT 06/05 A3023 RMK A01 T00590051  RH  094%=      5-min Rain = 0
KTR1 070917Z 35020G25KT 06/05 A3023 RMK A01 T00590050  RH  094%=      5-min Rain = 0
KTR1 070918Z 35019G24KT 06/05 A3024 RMK A01 T00590050  RH  094%=      5-min Rain = 0
KTR1 070919Z 35019KT 06/05 A3024 RMK A01 T00590049  RH  094%=      5-min Rain = 0
KTR1 070920Z 35022G27KT 06/05 A3024 RMK A01 T00590049  RH  093%=      5-min Rain = 0
KTR1 070921Z 35017G22KT 06/05 A3024 RMK A01 T00590048  RH  093%=      5-min Rain = 0
KTR1 070922Z 35017G23KT 06/05 A3024 RMK A01 T00590049  RH  094%=      5-min Rain = 0
KTR1 070923Z 35019KT 06/05 A3025 RMK A01 T00580049  RH  094%=      5-min Rain = 0
KTR1 070924Z 35019G24KT 06/05 A3025 RMK A01 T00580049  RH  094%=      5-min Rain = 0
KTR1 070925Z 34021KT 06/05 A3025 RMK A01 T00580049  RH  094%=      5-min Rain = 0
KTR1 070926Z 35015G20KT 06/05 A3025 RMK A01 T00580049  RH  094%=      5-min Rain = 0
KTR1 070927Z 35015G22KT 06/05 A3025 RMK A01 T00580050  RH  094%=      5-min Rain = 0
KTR1 070928Z 35020G25KT 06/05 A3025 RMK A01 T00580049  RH  094%=      5-min Rain = 0
KTR1 070929Z 34021KT 06/05 A3025 RMK A01 T00580048  RH  094%=      5-min Rain = 0
KTR1 070930Z 35021G27KT 06/05 A3025 RMK A01 T00570047  RH  093%=      5-min Rain = 0
KTR1 070931Z 35020G25KT 06/05 A3025 RMK A01 T00570047  RH  093%=      5-min Rain = 0
KTR1 070932Z 35021KT 06/05 A3025 RMK A01 T00570046  RH  093%=      5-min Rain = 0
KTR1 070933Z 35021KT 06/05 A3025 RMK A01 T00570046  RH  093%=      5-min Rain = 0
KTR1 070934Z 35022KT 06/05 A3025 RMK A01 T00570046  RH  093%=      5-min Rain = 0
KTR1 070935Z 35015KT 06/05 A3025 RMK A01 T00560045  RH  093%=      5-min Rain = 0
KTR1 070936Z 36023G30KT 06/05 A3025 RMK A01 T00560046  RH  093%=      5-min Rain = 0
KTR1 070937Z 35021G26KT 06/05 A3025 RMK A01 T00560045  RH  093%=      5-min Rain = 0
KTR1 070938Z 34019G28KT 06/05 A3025 RMK A01 T00560045  RH  093%=      5-min Rain = 0
KTR1 070939Z 35022G27KT 06/04 A3025 RMK A01 T00560044  RH  092%=      5-min Rain = 0
KTR1 070940Z 35020G25KT 06/04 A3025 RMK A01 T00560044  RH  092%=      5-min Rain = 0
KTR1 070941Z 35021KT 06/04 A3026 RMK A01 T00560044  RH  092%=      5-min Rain = 0
KTR1 070942Z 35022G27KT 06/04 A3025 RMK A01 T00560043  RH  092%=      5-min Rain = 0
KTR1 070943Z 35022G29KT 06/04 A3026 RMK A01 T00550043  RH  092%=      5-min Rain = 0
KTR1 070944Z 35023KT 06/04 A3026 RMK A01 T00550043  RH  092%=      5-min Rain = 0
KTR1 070945Z 35018G24KT 06/04 A3026 RMK A01 T00560043  RH  092%=      5-min Rain = 0
KTR1 070946Z 35015G20KT 06/04 A3026 RMK A01 T00550044  RH  093%=      5-min Rain = 0
KTR1 070947Z 36018G24KT 06/05 A3025 RMK A01 T00550045  RH  093%=      5-min Rain = 0
KTR1 070948Z 35018G25KT 06/05 A3025 RMK A01 T00560045  RH  093%=      5-min Rain = 0
KTR1 070949Z 36016G22KT 06/05 A3025 RMK A01 T00550045  RH  093%=      5-min Rain = 0
KTR1 070950Z 35020G26KT 06/05 A3025 RMK A01 T00550045  RH  093%=      5-min Rain = 0
KTR1 070951Z 35022KT 06/04 A3025 RMK A01 T00550044  RH  093%=      5-min Rain = 0
KTR1 070952Z 35020G27KT 06/04 A3025 RMK A01 T00550044  RH  093%=      5-min Rain = 0
KTR1 070953Z 00020G25KT 06/05 A3025 RMK A01 T00550045  RH  093%=      5-min Rain = 0
KTR1 070954Z 35019KT 06/04 A3025 RMK A01 T00550044  RH  093%=      5-min Rain = 0
KTR1 070955Z 35016G22KT 06/04 A3026 RMK A01 T00550044  RH  093%=      5-min Rain = 0
KTR1 070956Z 36015G20KT 06/05 A3026 RMK A01 T00550045  RH  094%=      5-min Rain = 0
KTR1 070957Z 35020G25KT 06/05 A3026 RMK A01 T00550045  RH  094%=      5-min Rain = 0
KTR1 070958Z 35019G26KT 06/05 A3026 RMK A01 T00550045  RH  093%=      5-min Rain = 0
KTR1 070959Z 35018KT 06/05 A3026 RMK A01 T00550045  RH  094%=      5-min Rain = 0
KTR1 071000Z 35016G21KT 06/05 A3026 RMK A01 T00550046  RH  094%=      5-min Rain = 0
KTR1 071001Z 35018KT 06/05 A3026 RMK A01 T00550046  RH  094%=      5-min Rain = 0
KTR1 071002Z 34022G27KT 05/05 A3027 RMK A01 T00540045  RH  094%=      5-min Rain = 0
KTR1 071003Z 34021KT 05/04 A3026 RMK A01 T00540043  RH  093%=      5-min Rain = 0
KTR1 071004Z 35021G26KT 05/04 A3027 RMK A01 T00530043  RH  093%=      5-min Rain = 0
KTR1 071005Z 35021G26KT 05/04 A3027 RMK A01 T00530043  RH  093%=      5-min Rain = 0
KTR1 071006Z 34024G29KT 05/04 A3027 RMK A01 T00530042  RH  093%=      5-min Rain = 0
KTR1 071007Z 34025G32KT 05/04 A3027 RMK A01 T00520041  RH  092%=      5-min Rain = 0
KTR1 071008Z 35020G25KT 05/04 A3027 RMK A01 T00520040  RH  092%=      5-min Rain = 0
KTR1 071009Z 34022KT 05/04 A3027 RMK A01 T00520041  RH  093%=      5-min Rain = 0
KTR1 071010Z 35021KT 05/04 A3027 RMK A01 T00520041  RH  093%=      5-min Rain = 0
KTR1 071011Z 34023G28KT 05/04 A3027 RMK A01 T00510042  RH  093%=      5-min Rain = 0
KTR1 071012Z 35025G31KT 05/04 A3027 RMK A01 T00510040  RH  093%=      5-min Rain = 0
KTR1 071013Z 36020G25KT 05/04 A3027 RMK A01 T00510040  RH  092%=      5-min Rain = 0
KTR1 071014Z 35020G25KT 05/04 A3028 RMK A01 T00510040  RH  093%=      5-min Rain = 0
KTR1 071015Z 36019G25KT 05/04 A3028 RMK A01 T00510041  RH  093%=      5-min Rain = 0
KTR1 071016Z 35021KT 05/04 A3028 RMK A01 T00510041  RH  093%=      5-min Rain = 0
KTR1 071017Z 36019KT 05/04 A3028 RMK A01 T00510041  RH  093%=      5-min Rain = 0
KTR1 071018Z 35021KT 05/04 A3028 RMK A01 T00510042  RH  094%=      5-min Rain = 0
KTR1 071019Z 34020KT 05/04 A3028 RMK A01 T00510041  RH  094%=      5-min Rain = 0
KTR1 071020Z 35019G26KT 05/04 A3028 RMK A01 T00510041  RH  094%=      5-min Rain = 0
KTR1 071021Z 35024G29KT 05/04 A3028 RMK A01 T00500041  RH  093%=      5-min Rain = 0
KTR1 071022Z 35019KT 05/04 A3028 RMK A01 T00500039  RH  093%=      5-min Rain = 0
KTR1 071023Z 35024G31KT 05/04 A3028 RMK A01 T00500039  RH  093%=      5-min Rain = 0
KTR1 071024Z 35026G31KT 05/04 A3028 RMK A01 T00490037  RH  092%=      5-min Rain = 0
KTR1 071025Z 35024G29KT 05/04 A3028 RMK A01 T00490036  RH  091%=      5-min Rain = 0
KTR1 071026Z 35023G28KT 05/04 A3028 RMK A01 T00490036  RH  091%=      5-min Rain = 0
KTR1 071027Z 35022G27KT 05/04 A3028 RMK A01 T00490037  RH  092%=      5-min Rain = 0
KTR1 071028Z 35023KT 05/04 A3028 RMK A01 T00490037  RH  092%=      5-min Rain = 0
KTR1 071029Z 35022KT 05/04 A3028 RMK A01 T00480036  RH  092%=      5-min Rain = 0
KTR1 071030Z 34022G29KT 05/04 A3028 RMK A01 T00480037  RH  092%=      5-min Rain = 0
KTR1 071031Z 35022G28KT 05/04 A3028 RMK A01 T00480036  RH  092%=      5-min Rain = 0
KTR1 071032Z 35021G26KT 05/04 A3028 RMK A01 T00480037  RH  092%=      5-min Rain = 0
KTR1 071033Z 36020G32KT 05/04 A3028 RMK A01 T00480037  RH  093%=      5-min Rain = 0
KTR1 071034Z 35022G28KT 05/04 A3028 RMK A01 T00480036  RH  092%=      5-min Rain = 0
KTR1 071035Z 00021G27KT 05/04 A3029 RMK A01 T00480036  RH  092%=      5-min Rain = 0
KTR1 071036Z 35024KT 05/04 A3029 RMK A01 T00480036  RH  092%=      5-min Rain = 0
KTR1 071037Z 35021G26KT 05/04 A3028 RMK A01 T00480036  RH  092%=      5-min Rain = 0
KTR1 071038Z 35017KT 05/04 A3028 RMK A01 T00480036  RH  092%=      5-min Rain = 0
KTR1 071039Z 35017G22KT 05/04 A3028 RMK A01 T00480037  RH  093%=      5-min Rain = 0
KTR1 071040Z 35016KT 05/04 A3028 RMK A01 T00470037  RH  093%=      5-min Rain = 0
KTR1 071041Z 35014KT 05/04 A3029 RMK A01 T00470038  RH  094%=      5-min Rain = 0
KTR1 071042Z 35019G26KT 05/04 A3028 RMK A01 T00470039  RH  094%=      5-min Rain = 0
KTR1 071043Z 35018KT 05/04 A3028 RMK A01 T00470037  RH  094%=      5-min Rain = 0
KTR1 071044Z 35023KT 05/04 A3028 RMK A01 T00460036  RH  093%=      5-min Rain = 0
KTR1 071045Z 36021G26KT 05/04 A3029 RMK A01 T00460035  RH  093%=      5-min Rain = 0
KTR1 071046Z 35019G26KT 05/04 A3029 RMK A01 T00460035  RH  093%=      5-min Rain = 0
KTR1 071047Z 35021G26KT 05/04 A3029 RMK A01 T00450035  RH  093%=      5-min Rain = 0
KTR1 071048Z 35020G26KT 05/04 A3029 RMK A01 T00450035  RH  093%=      5-min Rain = 0
KTR1 071049Z 35019G24KT 05/04 A3029 RMK A01 T00450035  RH  093%=      5-min Rain = 0
KTR1 071050Z 34020G28KT 05/04 A3029 RMK A01 T00450035  RH  094%=      5-min Rain = 0
KTR1 071051Z 35020G27KT 05/04 A3029 RMK A01 T00450035  RH  094%=      5-min Rain = 0
KTR1 071052Z 35019KT 05/04 A3029 RMK A01 T00450036  RH  094%=      5-min Rain = 0
KTR1 071053Z 35016KT 05/04 A303 RMK A01 T00450036  RH  094%=      5-min Rain = 0
KTR1 071054Z 35014KT 05/04 A3029 RMK A01 T00450036  RH  094%=      5-min Rain = 0
KTR1 071055Z 35018G26KT 05/04 A3029 RMK A01 T00450037  RH  095%=      5-min Rain = 0
KTR1 071056Z 35020G28KT 04/04 A3029 RMK A01 T00440035  RH  094%=      5-min Rain = 0
KTR1 071057Z 35018G25KT 04/03 A303 RMK A01 T00430034  RH  094%=      5-min Rain = 0
KTR1 071058Z 35022G31KT 04/03 A303 RMK A01 T00430034  RH  094%=      5-min Rain = 0.01
KTR1 071059Z 36022G29KT 04/03 A303 RMK A01 T00430033  RH  094%=      5-min Rain = 0
KTR1 071100Z 35020G27KT 04/03 A303 RMK A01 T00420033  RH  093%=      5-min Rain = 0
KTR1 071101Z 36019G26KT 04/03 A303 RMK A01 T00420033  RH  094%=      5-min Rain = 0
KTR1 071102Z 36022KT 04/03 A303 RMK A01 T00420033  RH  094%=      5-min Rain = 0
KTR1 071103Z 36018G23KT 04/03 A303 RMK A01 T00420033  RH  094%=      5-min Rain = 0
KTR1 071104Z 35017G23KT 04/03 A303 RMK A01 T00420033  RH  094%=      5-min Rain = 0
KTR1 071105Z 35023G29KT 04/03 A3031 RMK A01 T00420033  RH  094%=      5-min Rain = 0
KTR1 071106Z 36023KT 04/03 A3031 RMK A01 T00410032  RH  094%=      5-min Rain = 0
KTR1 071107Z 35016G21KT 04/03 A3031 RMK A01 T00410032  RH  093%=      5-min Rain = 0
KTR1 071108Z 35019G26KT 04/03 A3031 RMK A01 T00410033  RH  094%=      5-min Rain = 0
KTR1 071109Z 35019G24KT 04/03 A3031 RMK A01 T00410032  RH  094%=      5-min Rain = 0
KTR1 071110Z 36023G28KT 04/03 A3031 RMK A01 T00410032  RH  094%=      5-min Rain = 0
KTR1 071111Z 36022G28KT 04/03 A3031 RMK A01 T00410031  RH  093%=      5-min Rain = 0
KTR1 071112Z 36022KT 04/03 A3031 RMK A01 T00410031  RH  093%=      5-min Rain = 0
KTR1 071113Z 36017G22KT 04/03 A3031 RMK A01 T00410031  RH  093%=      5-min Rain = 0.01
KTR1 071114Z 35019G24KT 04/03 A3031 RMK A01 T00400031  RH  094%=      5-min Rain = 0
KTR1 071115Z 36016G21KT 04/03 A3031 RMK A01 T00400031  RH  094%=      5-min Rain = 0
KTR1 071116Z 35018KT 04/03 A303 RMK A01 T00400032  RH  094%=      5-min Rain = 0
KTR1 071117Z 00016G22KT 04/03 A303 RMK A01 T00400031  RH  094%=      5-min Rain = 0
KTR1 071118Z 00020G28KT 04/03 A3031 RMK A01 T00400032  RH  094%=      5-min Rain = 0
KTR1 071119Z 36020KT 04/03 A3031 RMK A01 T00400031  RH  094%=      5-min Rain = 0
KTR1 071120Z 36020G26KT 04/03 A3031 RMK A01 T00400030  RH  093%=      5-min Rain = 0
KTR1 071121Z 00024G32KT 04/03 A3031 RMK A01 T00400030  RH  093%=      5-min Rain = 0
KTR1 071122Z 36023G30KT 04/03 A3031 RMK A01 T00390029  RH  093%=      5-min Rain = 0.01
KTR1 071123Z 36019G24KT 04/03 A3031 RMK A01 T00390029  RH  093%=      5-min Rain = 0
KTR1 071124Z 00020G25KT 04/03 A3031 RMK A01 T00390029  RH  093%=      5-min Rain = 0
KTR1 071125Z 00018KT 04/03 A3031 RMK A01 T00390029  RH  093%=      5-min Rain = 0
KTR1 071126Z 00023G28KT 04/03 A3031 RMK A01 T00390029  RH  093%=      5-min Rain = 0
KTR1 071127Z 00019G24KT 04/03 A3031 RMK A01 T00390029  RH  093%=      5-min Rain = 0
KTR1 071128Z 00017KT 04/03 A3031 RMK A01 T00390029  RH  094%=      5-min Rain = 0
KTR1 071129Z 00018G23KT 04/03 A3031 RMK A01 T00390030  RH  094%=      5-min Rain = 0
KTR1 071130Z 00017G22KT 04/03 A3031 RMK A01 T00390030  RH  094%=      5-min Rain = 0
KTR1 071131Z 00017KT 04/03 A3031 RMK A01 T00390030  RH  094%=      5-min Rain = 0
KTR1 071132Z 01014KT 04/03 A3031 RMK A01 T00390030  RH  094%=      5-min Rain = 0.01
KTR1 071133Z 00018G23KT 04/03 A303 RMK A01 T00390031  RH  095%=      5-min Rain = 0
KTR1 071134Z 01015KT 04/03 A303 RMK A01 T00380030  RH  095%=      5-min Rain = 0
KTR1 071135Z 00015KT 04/03 A303 RMK A01 T00380031  RH  095%=      5-min Rain = 0
KTR1 071136Z 00016KT 04/03 A303 RMK A01 T00380031  RH  095%=      5-min Rain = 0
KTR1 071137Z 35017KT 04/03 A303 RMK A01 T00380031  RH  095%=      5-min Rain = 0
KTR1 071138Z 36016G22KT 04/03 A303 RMK A01 T00380031  RH  095%=      5-min Rain = 0.01
KTR1 071139Z 36018KT 04/03 A3031 RMK A01 T00380031  RH  095%=      5-min Rain = 0
KTR1 071140Z 35021G26KT 04/03 A3031 RMK A01 T00380030  RH  095%=      5-min Rain = 0
KTR1 071141Z 35021G28KT 04/03 A3031 RMK A01 T00370028  RH  094%=      5-min Rain = 0
KTR1 071142Z 35019G24KT 04/03 A3032 RMK A01 T00370028  RH  094%=      5-min Rain = 0
KTR1 071143Z 35020G26KT 04/03 A3032 RMK A01 T00370029  RH  094%=      5-min Rain = 0
KTR1 071144Z 36021G26KT 04/03 A3032 RMK A01 T00360027  RH  094%=      5-min Rain = 0.01
KTR1 071145Z 35017KT 04/03 A3032 RMK A01 T00360026  RH  093%=      5-min Rain = 0
KTR1 071146Z 35018KT 04/03 A3032 RMK A01 T00360027  RH  094%=      5-min Rain = 0
KTR1 071147Z 35018KT 04/03 A3032 RMK A01 T00350027  RH  094%=      5-min Rain = 0
KTR1 071148Z 35015KT 04/03 A3032 RMK A01 T00350027  RH  094%=      5-min Rain = 0
KTR1 071149Z 35016KT 04/03 A3032 RMK A01 T00350027  RH  095%=      5-min Rain = 0
KTR1 071150Z 36025G31KT 04/03 A3032 RMK A01 T00350026  RH  094%=      5-min Rain = 0
KTR1 071151Z 35018G24KT 03/02 A3033 RMK A01 T00340024  RH  093%=      5-min Rain = 0.01
KTR1 071152Z 00024G29KT 03/02 A3033 RMK A01 T00340024  RH  093%=      5-min Rain = 0
KTR1 071153Z 00022KT 03/02 A3033 RMK A01 T00340023  RH  093%=      5-min Rain = 0
KTR1 071154Z 36021G26KT 03/02 A3033 RMK A01 T00340023  RH  093%=      5-min Rain = 0
KTR1 071155Z 00019KT 03/02 A3033 RMK A01 T00330022  RH  093%=      5-min Rain = 0
KTR1 071156Z 36021G26KT 03/02 A3033 RMK A01 T00330023  RH  093%=      5-min Rain = 0
KTR1 071157Z 35021KT 03/02 A3033 RMK A01 T00330023  RH  093%=      5-min Rain = 0
KTR1 071158Z 35021KT 03/02 A3033 RMK A01 T00330023  RH  093%=      5-min Rain = 0
KTR1 071159Z 00017KT 03/02 A3033 RMK A01 T00330022  RH  093%=      5-min Rain = 0
KTR1 071200Z 36015KT 03/02 A3033 RMK A01 T00330023  RH  093%=      5-min Rain = 0.01
KTR1 071201Z 00016G24KT 03/02 A3034 RMK A01 T00330024  RH  094%=      5-min Rain = 0
KTR1 071202Z 36017G22KT 03/02 A3034 RMK A01 T00330023  RH  094%=      5-min Rain = 0
KTR1 071203Z 00018G23KT 03/02 A3034 RMK A01 T00330023  RH  093%=      5-min Rain = 0
KTR1 071204Z 00021G28KT 03/02 A3034 RMK A01 T00330022  RH  093%=      5-min Rain = 0
KTR1 071205Z 36020G25KT 03/02 A3034 RMK A01 T00330022  RH  093%=      5-min Rain = 0
KTR1 071206Z 00017G24KT 03/02 A3034 RMK A01 T00330021  RH  092%=      5-min Rain = 0
KTR1 071207Z 36023G28KT 03/02 A3034 RMK A01 T00330021  RH  092%=      5-min Rain = 0
KTR1 071208Z 36021G29KT 03/02 A3034 RMK A01 T00330020  RH  092%=      5-min Rain = 0
KTR1 071209Z 00019KT 03/02 A3033 RMK A01 T00320021  RH  092%=      5-min Rain = 0
KTR1 071210Z 00018KT 03/02 A3033 RMK A01 T00320021  RH  092%=      5-min Rain = 0
KTR1 071211Z 36023G28KT 03/02 A3033 RMK A01 T00310020  RH  093%=      5-min Rain = 0
KTR1 071212Z 36025KT 03/02 A3034 RMK A01 T00310019  RH  092%=      5-min Rain = 0
KTR1 071213Z 36024G31KT 03/02 A3034 RMK A01 T00310018  RH  092%=      5-min Rain = 0
KTR1 071214Z 35027KT 03/02 A3034 RMK A01 T00300017  RH  091%=      5-min Rain = 0
KTR1 071215Z 36023G31KT 03/02 A3034 RMK A01 T00300017  RH  091%=      5-min Rain = 0
KTR1 071216Z 36021G27KT 03/02 A3033 RMK A01 T00290016  RH  091%=      5-min Rain = 0
KTR1 071217Z 35020G26KT 03/02 A3033 RMK A01 T00290017  RH  092%=      5-min Rain = 0.01
KTR1 071218Z 36020KT 03/02 A3033 RMK A01 T00280017  RH  092%=      5-min Rain = 0
KTR1 071219Z 35023G29KT 03/02 A3033 RMK A01 T00280017  RH  093%=      5-min Rain = 0
KTR1 071220Z 00022G29KT 03/02 A3033 RMK A01 T00280016  RH  092%=      5-min Rain = 0
KTR1 071221Z 00016KT 03/02 A3033 RMK A01 T00280016  RH  092%=      5-min Rain = 0
KTR1 071222Z 00022G29KT 03/02 A3033 RMK A01 T00280017  RH  093%=      5-min Rain = 0
KTR1 071223Z 00022G27KT 03/02 A3033 RMK A01 T00270017  RH  093%=      5-min Rain = 0
KTR1 071224Z 36022G27KT 03/02 A3034 RMK A01 T00270016  RH  093%=      5-min Rain = 0
KTR1 071225Z 36020G25KT 03/02 A3034 RMK A01 T00270017  RH  093%=      5-min Rain = 0
KTR1 071226Z 36020G26KT 03/02 A3034 RMK A01 T00280017  RH  093%=      5-min Rain = 0
KTR1 071227Z 36026G32KT 03/02 A3034 RMK A01 T00270016  RH  092%=      5-min Rain = 0
KTR1 071228Z 36021G27KT 03/02 A3034 RMK A01 T00270015  RH  092%=      5-min Rain = 0
KTR1 071229Z 35021G27KT 03/02 A3034 RMK A01 T00270016  RH  092%=      5-min Rain = 0
KTR1 071230Z 36023KT 03/02 A3034 RMK A01 T00270015  RH  092%=      5-min Rain = 0
KTR1 071231Z 35026G31KT 03/02 A3034 RMK A01 T00270015  RH  092%=      5-min Rain = 0
KTR1 071232Z 36022G30KT 03/01 A3034 RMK A01 T00270014  RH  091%=      5-min Rain = 0
KTR1 071233Z 36023G29KT 03/01 A3035 RMK A01 T00270014  RH  092%=      5-min Rain = 0
KTR1 071234Z 36021G26KT 03/02 A3035 RMK A01 T00270015  RH  092%=      5-min Rain = 0
KTR1 071235Z 00021G28KT 03/02 A3035 RMK A01 T00270015  RH  092%=      5-min Rain = 0
KTR1 071236Z 36022KT 03/02 A3035 RMK A01 T00270016  RH  092%=      5-min Rain = 0
KTR1 071237Z 36020G28KT 03/02 A3035 RMK A01 T00260015  RH  092%=      5-min Rain = 0
KTR1 071238Z 36020G27KT 03/02 A3035 RMK A01 T00260015  RH  092%=      5-min Rain = 0
KTR1 071239Z 36020KT 03/02 A3035 RMK A01 T00260015  RH  092%=      5-min Rain = 0
KTR1 071240Z 00018KT 03/02 A3035 RMK A01 T00260016  RH  093%=      5-min Rain = 0
KTR1 071241Z 35019KT 03/02 A3036 RMK A01 T00260016  RH  093%=      5-min Rain = 0
KTR1 071242Z 00020G25KT 03/02 A3036 RMK A01 T00260016  RH  093%=      5-min Rain = 0.01
KTR1 071243Z 00018KT 03/02 A3036 RMK A01 T00260016  RH  093%=      5-min Rain = 0
KTR1 071244Z 00016G22KT 03/02 A3036 RMK A01 T00260016  RH  093%=      5-min Rain = 0
KTR1 071245Z 00021G26KT 03/02 A3035 RMK A01 T00260016  RH  093%=      5-min Rain = 0
KTR1 071246Z 01019KT 03/02 A3035 RMK A01 T00260016  RH  093%=      5-min Rain = 0
KTR1 071247Z 01019KT 03/02 A3035 RMK A01 T00260016  RH  093%=      5-min Rain = 0
KTR1 071248Z 00020G26KT 03/02 A3035 RMK A01 T00260015  RH  093%=      5-min Rain = 0
KTR1 071249Z 01022G28KT 03/02 A3035 RMK A01 T00260015  RH  093%=      5-min Rain = 0
KTR1 071250Z 01019G27KT 03/02 A3035 RMK A01 T00260015  RH  093%=      5-min Rain = 0
KTR1 071251Z 01016KT 03/02 A3035 RMK A01 T00260016  RH  093%=      5-min Rain = 0
KTR1 071252Z 01019KT 03/02 A3035 RMK A01 T00260016  RH  093%=      5-min Rain = 0
KTR1 071253Z 01018KT 03/02 A3035 RMK A01 T00260016  RH  093%=      5-min Rain = 0
KTR1 071254Z 01016G23KT 03/02 A3035 RMK A01 T00250016  RH  093%=      5-min Rain = 0.01
KTR1 071255Z 01016G21KT 03/02 A3036 RMK A01 T00250016  RH  094%=      5-min Rain = 0
KTR1 071256Z 01018KT 03/02 A3036 RMK A01 T00250016  RH  094%=      5-min Rain = 0
KTR1 071257Z 01015KT 03/02 A3036 RMK A01 T00250016  RH  093%=      5-min Rain = 0
KTR1 071258Z 00017KT 03/02 A3036 RMK A01 T00250016  RH  094%=      5-min Rain = 0
KTR1 071259Z 00018KT 03/02 A3036 RMK A01 T00250016  RH  094%=      5-min Rain = 0
KTR1 071300Z 35019G24KT 03/02 A3036 RMK A01 T00250016  RH  094%=      5-min Rain = 0
KTR1 071301Z 36020KT 03/02 A3036 RMK A01 T00250016  RH  094%=      5-min Rain = 0
KTR1 071302Z 36017KT 03/02 A3036 RMK A01 T00260016  RH  093%=      5-min Rain = 0
KTR1 071303Z 36018KT 03/02 A3037 RMK A01 T00260016  RH  094%=      5-min Rain = 0
KTR1 071304Z 35019KT 03/02 A3037 RMK A01 T00260016  RH  093%=      5-min Rain = 0
KTR1 071305Z 35016KT 03/02 A3037 RMK A01 T00260016  RH  093%=      5-min Rain = 0
KTR1 071306Z 35017G22KT 03/02 A3038 RMK A01 T00260017  RH  094%=      5-min Rain = 0.01
KTR1 071307Z 35020KT 03/02 A3038 RMK A01 T00260016  RH  093%=      5-min Rain = 0
KTR1 071308Z 35015KT 03/02 A3038 RMK A01 T00250016  RH  093%=      5-min Rain = 0
KTR1 071309Z 35015KT 03/02 A3038 RMK A01 T00250016  RH  094%=      5-min Rain = 0
KTR1 071310Z 34017G22KT 03/02 A3038 RMK A01 T00250016  RH  094%=      5-min Rain = 0
KTR1 071311Z 34018KT 03/02 A3038 RMK A01 T00250016  RH  094%=      5-min Rain = 0
KTR1 071312Z 35020G25KT 03/01 A3038 RMK A01 T00250014  RH  093%=      5-min Rain = 0
KTR1 071313Z 34018G24KT 02/01 A3038 RMK A01 T00240014  RH  093%=      5-min Rain = 0
KTR1 071314Z 34019G24KT 02/01 A3038 RMK A01 T00240014  RH  093%=      5-min Rain = 0
KTR1 071315Z 35018KT 02/01 A3038 RMK A01 T00240014  RH  093%=      5-min Rain = 0
KTR1 071316Z 35021G27KT 02/01 A3039 RMK A01 T00240014  RH  093%=      5-min Rain = 0
KTR1 071317Z 35021KT 02/01 A3039 RMK A01 T00230013  RH  093%=      5-min Rain = 0
KTR1 071318Z 34019G24KT 02/01 A3039 RMK A01 T00230012  RH  093%=      5-min Rain = 0
KTR1 071319Z 35017KT 02/01 A3039 RMK A01 T00230013  RH  093%=      5-min Rain = 0.01
KTR1 071320Z 35019KT 02/01 A3039 RMK A01 T00230014  RH  094%=      5-min Rain = 0
KTR1 071321Z 35020KT 02/01 A3039 RMK A01 T00230013  RH  093%=      5-min Rain = 0
KTR1 071322Z 35014KT 02/01 A304 RMK A01 T00230013  RH  093%=      5-min Rain = 0
KTR1 071323Z 35018KT 02/01 A304 RMK A01 T00230014  RH  094%=      5-min Rain = 0
KTR1 071324Z 35018G23KT 02/01 A304 RMK A01 T00230013  RH  094%=      5-min Rain = 0
KTR1 071325Z 35020G26KT 02/01 A3041 RMK A01 T00230013  RH  093%=      5-min Rain = 0
KTR1 071326Z 34020G25KT 02/01 A3041 RMK A01 T00230013  RH  093%=      5-min Rain = 0
KTR1 071327Z 35019G25KT 02/01 A3041 RMK A01 T00230012  RH  093%=      5-min Rain = 0.01
KTR1 071328Z 35018KT 02/01 A3041 RMK A01 T00230012  RH  093%=      5-min Rain = 0
KTR1 071329Z 34017G22KT 02/01 A3041 RMK A01 T00220012  RH  093%=      5-min Rain = 0
KTR1 071330Z 35016KT 02/01 A3041 RMK A01 T00220012  RH  093%=      5-min Rain = 0
KTR1 071331Z 35016KT 02/01 A304 RMK A01 T00220012  RH  093%=      5-min Rain = 0
KTR1 071332Z 36017G23KT 02/01 A304 RMK A01 T00220012  RH  093%=      5-min Rain = 0
KTR1 071333Z 00022KT 02/01 A304 RMK A01 T00220012  RH  093%=      5-min Rain = 0.01
KTR1 071334Z 36021G26KT 02/01 A304 RMK A01 T00220011  RH  092%=      5-min Rain = 0
KTR1 071335Z 35019KT 02/01 A304 RMK A01 T00210011  RH  093%=      5-min Rain = 0
KTR1 071336Z 35018KT 02/01 A304 RMK A01 T00210011  RH  093%=      5-min Rain = 0
KTR1 071337Z 35015G20KT 02/01 A3041 RMK A01 T00210011  RH  093%=      5-min Rain = 0
KTR1 071338Z 35017G22KT 02/01 A3041 RMK A01 T00210012  RH  093%=      5-min Rain = 0.01
KTR1 071339Z 35015KT 02/01 A3041 RMK A01 T00210011  RH  093%=      5-min Rain = 0
KTR1 071340Z 36018KT 02/01 A3041 RMK A01 T00210012  RH  093%=      5-min Rain = 0
KTR1 071341Z 36018KT 02/01 A3041 RMK A01 T00210012  RH  093%=      5-min Rain = 0
KTR1 071342Z 36016KT 02/01 A3041 RMK A01 T00210011  RH  093%=      5-min Rain = 0.01
KTR1 071343Z 36018KT 02/01 A3041 RMK A01 T00210011  RH  093%=      5-min Rain = 0
KTR1 071344Z 01015G20KT 02/01 A3041 RMK A01 T00210011  RH  093%=      5-min Rain = 0
KTR1 071345Z 36015KT 02/01 A304 RMK A01 T00210012  RH  094%=      5-min Rain = 0
KTR1 071346Z 00012G17KT 02/01 A304 RMK A01 T00210012  RH  094%=      5-min Rain = 0
KTR1 071347Z 00014KT 02/01 A304 RMK A01 T00210012  RH  094%=      5-min Rain = 0.01
KTR1 071348Z 00014KT 02/01 A304 RMK A01 T00210013  RH  094%=      5-min Rain = 0
KTR1 071349Z 36015KT 02/01 A304 RMK A01 T00210013  RH  095%=      5-min Rain = 0
KTR1 071350Z 00013KT 02/01 A304 RMK A01 T00210013  RH  095%=      5-min Rain = 0
KTR1 071351Z 01012KT 02/01 A304 RMK A01 T00210014  RH  095%=      5-min Rain = 0
KTR1 071352Z 00013KT 02/01 A3039 RMK A01 T00210014  RH  095%=      5-min Rain = 0
KTR1 071353Z 00012KT 02/01 A3039 RMK A01 T00210014  RH  095%=      5-min Rain = 0.01
KTR1 071354Z 35018KT 02/01 A3039 RMK A01 T00210014  RH  095%=      5-min Rain = 0
KTR1 071355Z 35014KT 02/01 A3039 RMK A01 T00200013  RH  095%=      5-min Rain = 0
KTR1 071356Z 35015KT 02/01 A304 RMK A01 T00200013  RH  095%=      5-min Rain = 0
KTR1 071357Z 36013KT 02/01 A304 RMK A01 T00200013  RH  095%=      5-min Rain = 0
KTR1 071358Z 36017G24KT 02/01 A304 RMK A01 T00200013  RH  095%=      5-min Rain = 0
KTR1 071359Z 36014KT 02/01 A304 RMK A01 T00200012  RH  095%=      5-min Rain = 0
KTR1 071400Z 00012KT 02/01 A304 RMK A01 T00200012  RH  095%=      5-min Rain = 0
KTR1 071401Z 00014KT 02/01 A304 RMK A01 T00200013  RH  095%=      5-min Rain = 0
KTR1 071402Z 35017G22KT 02/01 A304 RMK A01 T00200013  RH  095%=      5-min Rain = 0
KTR1 071403Z 35020KT 02/01 A304 RMK A01 T00200012  RH  094%=      5-min Rain = 0
KTR1 071404Z 36018KT 02/01 A304 RMK A01 T00200011  RH  094%=      5-min Rain = 0
KTR1 071405Z 36018G23KT 02/01 A304 RMK A01 T00200011  RH  094%=      5-min Rain = 0.01
KTR1 071406Z 36014KT 02/01 A304 RMK A01 T00200011  RH  094%=      5-min Rain = 0
KTR1 071407Z 00017KT 02/01 A304 RMK A01 T00200011  RH  094%=      5-min Rain = 0
KTR1 071408Z 36017KT 02/01 A3041 RMK A01 T00200011  RH  094%=      5-min Rain = 0
KTR1 071409Z 00016KT 02/01 A3041 RMK A01 T00200011  RH  094%=      5-min Rain = 0
KTR1 071410Z 36015KT 02/01 A3041 RMK A01 T00200011  RH  094%=      5-min Rain = 0
KTR1 071411Z 36017KT 02/01 A3041 RMK A01 T00200011  RH  094%=      5-min Rain = 0
KTR1 071412Z 35016G22KT 02/01 A3041 RMK A01 T00200011  RH  094%=      5-min Rain = 0
KTR1 071413Z 35017KT 02/01 A3041 RMK A01 T00190011  RH  094%=      5-min Rain = 0
KTR1 071414Z 36018KT 02/01 A3041 RMK A01 T00200011  RH  094%=      5-min Rain = 0
KTR1 071415Z 36018G24KT 02/01 A3041 RMK A01 T00200011  RH  094%=      5-min Rain = 0
KTR1 071416Z 36017G24KT 02/01 A3042 RMK A01 T00200010  RH  094%=      5-min Rain = 0
KTR1 071417Z 35018G23KT 02/01 A3041 RMK A01 T00200010  RH  094%=      5-min Rain = 0
KTR1 071418Z 00020KT 02/01 A3042 RMK A01 T00190010  RH  093%=      5-min Rain = 0
KTR1 071419Z 35019G25KT 02/01 A3041 RMK A01 T00190009  RH  093%=      5-min Rain = 0
KTR1 071420Z 35018KT 02/01 A3041 RMK A01 T00190009  RH  093%=      5-min Rain = 0
KTR1 071421Z 35017G22KT 02/01 A3041 RMK A01 T00190009  RH  093%=      5-min Rain = 0.01
KTR1 071422Z 36019KT 02/01 A3042 RMK A01 T00180009  RH  093%=      5-min Rain = 0
KTR1 071423Z 36018G23KT 02/01 A3042 RMK A01 T00180008  RH  093%=      5-min Rain = 0
KTR1 071424Z 36020KT 02/01 A3042 RMK A01 T00180008  RH  093%=      5-min Rain = 0
KTR1 071425Z 36018KT 02/01 A3042 RMK A01 T00180007  RH  093%=      5-min Rain = 0
KTR1 071426Z 36014KT 02/01 A3042 RMK A01 T00180008  RH  093%=      5-min Rain = 0
KTR1 071427Z 35015KT 02/01 A3042 RMK A01 T00180008  RH  094%=      5-min Rain = 0
KTR1 071428Z 35017KT 02/01 A3042 RMK A01 T00180008  RH  093%=      5-min Rain = 0
KTR1 071429Z 00014KT 02/01 A3042 RMK A01 T00180008  RH  093%=      5-min Rain = 0
KTR1 071430Z 00016G21KT 02/01 A3042 RMK A01 T00180009  RH  094%=      5-min Rain = 0
KTR1 071431Z 00021G28KT 02/01 A3042 RMK A01 T00180008  RH  093%=      5-min Rain = 0
KTR1 071432Z 36017G22KT 02/01 A3042 RMK A01 T00180007  RH  092%=      5-min Rain = 0
KTR1 071433Z 00022KT 02/01 A3042 RMK A01 T00180007  RH  092%=      5-min Rain = 0
KTR1 071434Z 00021G28KT 02/01 A3043 RMK A01 T00180006  RH  092%=      5-min Rain = 0
KTR1 071435Z 01016KT 02/01 A3043 RMK A01 T00180007  RH  092%=      5-min Rain = 0
KTR1 071436Z 00020KT 02/01 A3043 RMK A01 T00180007  RH  093%=      5-min Rain = 0
KTR1 071437Z 00016KT 02/01 A3043 RMK A01 T00170006  RH  092%=      5-min Rain = 0
KTR1 071438Z 35016KT 02/01 A3043 RMK A01 T00170007  RH  093%=      5-min Rain = 0
KTR1 071439Z 35017G22KT 02/01 A3043 RMK A01 T00170007  RH  093%=      5-min Rain = 0
KTR1 071440Z 00017G24KT 02/01 A3043 RMK A01 T00170007  RH  093%=      5-min Rain = 0
KTR1 071441Z 35018KT 02/01 A3043 RMK A01 T00170007  RH  093%=      5-min Rain = 0
KTR1 071442Z 01019G26KT 02/01 A3043 RMK A01 T00170006  RH  092%=      5-min Rain = 0
KTR1 071443Z 00018G23KT 02/01 A3043 RMK A01 T00170006  RH  092%=      5-min Rain = 0
KTR1 071444Z 00018G23KT 02/01 A3043 RMK A01 T00170006  RH  092%=      5-min Rain = 0
KTR1 071445Z 00016KT 02/01 A3043 RMK A01 T00170006  RH  092%=      5-min Rain = 0
KTR1 071446Z 00018KT 02/01 A3043 RMK A01 T00170006  RH  092%=      5-min Rain = 0
KTR1 071447Z 00017G22KT 02/01 A3043 RMK A01 T00170006  RH  092%=      5-min Rain = 0
KTR1 071448Z 36018KT 02/01 A3043 RMK A01 T00170006  RH  092%=      5-min Rain = 0
KTR1 071449Z 00018KT 02/01 A3043 RMK A01 T00170006  RH  092%=      5-min Rain = 0
KTR1 071450Z 00019KT 02/01 A3043 RMK A01 T00170006  RH  092%=      5-min Rain = 0
KTR1 071451Z 00018KT 02/01 A3043 RMK A01 T00170006  RH  092%=      5-min Rain = 0
KTR1 071452Z 00020G25KT 02/01 A3043 RMK A01 T00170006  RH  092%=      5-min Rain = 0
KTR1 071453Z 36020G27KT 02/01 A3043 RMK A01 T00170005  RH  091%=      5-min Rain = 0
KTR1 071454Z 36017G22KT 02/01 A3043 RMK A01 T00170005  RH  091%=      5-min Rain = 0
KTR1 071455Z 00017KT 02/01 A3043 RMK A01 T00170005  RH  092%=      5-min Rain = 0
KTR1 071456Z 00020G27KT 02/01 A3044 RMK A01 T00170005  RH  092%=      5-min Rain = 0
KTR1 071457Z 01019G25KT 02/01 A3044 RMK A01 T00170005  RH  091%=      5-min Rain = 0
KTR1 071458Z 00018KT 02/00 A3044 RMK A01 T00170004  RH  091%=      5-min Rain = 0
KTR1 071459Z 00018KT 02/01 A3044 RMK A01 T00170005  RH  092%=      5-min Rain = 0
KTR1 071500Z 01016KT 02/01 A3044 RMK A01 T00170006  RH  092%=      5-min Rain = 0
KTR1 071501Z 00017KT 02/01 A3045 RMK A01 T00170006  RH  092%=      5-min Rain = 0
KTR1 071502Z 00018G25KT 02/01 A3045 RMK A01 T00170006  RH  092%=      5-min Rain = 0
KTR1 071503Z 36019KT 02/01 A3045 RMK A01 T00170006  RH  092%=      5-min Rain = 0
KTR1 071504Z 01016KT 02/01 A3045 RMK A01 T00170006  RH  092%=      5-min Rain = 0
KTR1 071505Z 01016KT 02/01 A3045 RMK A01 T00170006  RH  092%=      5-min Rain = 0
KTR1 071506Z 00017G22KT 02/01 A3044 RMK A01 T00180007  RH  092%=      5-min Rain = 0
KTR1 071507Z 01018KT 02/01 A3044 RMK A01 T00180007  RH  092%=      5-min Rain = 0
KTR1 071508Z 01017KT 02/01 A3044 RMK A01 T00180006  RH  092%=      5-min Rain = 0
KTR1 071509Z 00016G21KT 02/01 A3044 RMK A01 T00180006  RH  092%=      5-min Rain = 0
KTR1 071510Z 36013G19KT 02/01 A3045 RMK A01 T00180007  RH  092%=      5-min Rain = 0
KTR1 071511Z 36012KT 02/01 A3045 RMK A01 T00190009  RH  093%=      5-min Rain = 0
KTR1 071512Z 36013KT 02/01 A3045 RMK A01 T00190010  RH  094%=      5-min Rain = 0
KTR1 071513Z 36013G19KT 02/01 A3045 RMK A01 T00190010  RH  094%=      5-min Rain = 0
KTR1 071514Z 36014KT 02/01 A3045 RMK A01 T00190010  RH  094%=      5-min Rain = 0
KTR1 071515Z 36013KT 02/01 A3045 RMK A01 T00200010  RH  093%=      5-min Rain = 0
KTR1 071516Z 35013G18KT 02/01 A3045 RMK A01 T00190010  RH  094%=      5-min Rain = 0
KTR1 071517Z 35015KT 02/01 A3045 RMK A01 T00200010  RH  094%=      5-min Rain = 0
KTR1 071518Z 35013KT 02/01 A3045 RMK A01 T00200010  RH  093%=      5-min Rain = 0
KTR1 071519Z 35011G16KT 02/01 A3045 RMK A01 T00200011  RH  094%=      5-min Rain = 0
KTR1 071520Z 35015KT 02/01 A3045 RMK A01 T00210012  RH  094%=      5-min Rain = 0
KTR1 071521Z 35013KT 02/01 A3045 RMK A01 T00200011  RH  094%=      5-min Rain = 0
KTR1 071522Z 35011G16KT 02/01 A3046 RMK A01 T00200011  RH  094%=      5-min Rain = 0
KTR1 071523Z 34012KT 02/01 A3046 RMK A01 T00200012  RH  094%=      5-min Rain = 0
KTR1 071524Z 34016KT 02/01 A3046 RMK A01 T00200012  RH  094%=      5-min Rain = 0
KTR1 071525Z 35013KT 02/01 A3046 RMK A01 T00200011  RH  094%=      5-min Rain = 0
KTR1 071526Z 34016KT 02/01 A3046 RMK A01 T00200011  RH  094%=      5-min Rain = 0
KTR1 071527Z 34015KT 02/01 A3046 RMK A01 T00200010  RH  093%=      5-min Rain = 0
KTR1 071528Z 35016G22KT 02/01 A3046 RMK A01 T00190010  RH  093%=      5-min Rain = 0
KTR1 071529Z 35019KT 02/01 A3046 RMK A01 T00190009  RH  093%=      5-min Rain = 0
KTR1 071530Z 35017G22KT 02/01 A3045 RMK A01 T00190008  RH  093%=      5-min Rain = 0
KTR1 071531Z 35016KT 02/01 A3045 RMK A01 T00190008  RH  093%=      5-min Rain = 0
KTR1 071532Z 35015KT 02/01 A3045 RMK A01 T00190008  RH  093%=      5-min Rain = 0
KTR1 071533Z 00018KT 02/01 A3045 RMK A01 T00190008  RH  093%=      5-min Rain = 0
KTR1 071534Z 35019KT 02/01 A3045 RMK A01 T00190008  RH  093%=      5-min Rain = 0
KTR1 071535Z 36015KT 02/01 A3045 RMK A01 T00190008  RH  092%=      5-min Rain = 0
KTR1 071536Z 00017KT 02/01 A3045 RMK A01 T00190008  RH  093%=      5-min Rain = 0
KTR1 071537Z 00017KT 02/01 A3045 RMK A01 T00190008  RH  093%=      5-min Rain = 0
KTR1 071538Z 01013KT 02/01 A3045 RMK A01 T00190008  RH  093%=      5-min Rain = 0
KTR1 071539Z 36018G24KT 02/01 A3045 RMK A01 T00190009  RH  093%=      5-min Rain = 0
KTR1 071540Z 36016G21KT 02/01 A3045 RMK A01 T00180008  RH  092%=      5-min Rain = 0
KTR1 071541Z 36014KT 02/01 A3046 RMK A01 T00190007  RH  092%=      5-min Rain = 0
KTR1 071542Z 36019G25KT 02/01 A3046 RMK A01 T00190008  RH  093%=      5-min Rain = 0
KTR1 071543Z 36017G23KT 02/01 A3046 RMK A01 T00190007  RH  092%=      5-min Rain = 0
KTR1 071544Z 36019KT 02/01 A3047 RMK A01 T00190007  RH  092%=      5-min Rain = 0
KTR1 071545Z 36016G22KT 02/01 A3047 RMK A01 T00190006  RH  091%=      5-min Rain = 0.01
KTR1 071546Z 35015KT 02/01 A3047 RMK A01 T00190007  RH  092%=      5-min Rain = 0
KTR1 071547Z 35017G23KT 02/01 A3047 RMK A01 T00190008  RH  093%=      5-min Rain = 0
KTR1 071548Z 36019KT 02/01 A3047 RMK A01 T00190007  RH  092%=      5-min Rain = 0
KTR1 071549Z 00016G22KT 02/01 A3047 RMK A01 T00180006  RH  091%=      5-min Rain = 0
KTR1 071550Z 36014KT 02/01 A3047 RMK A01 T00190007  RH  092%=      5-min Rain = 0
KTR1 071551Z 00016G21KT 02/01 A3047 RMK A01 T00190008  RH  093%=      5-min Rain = 0
KTR1 071552Z 36019G24KT 02/01 A3047 RMK A01 T00190007  RH  092%=      5-min Rain = 0
KTR1 071553Z 00016G22KT 02/01 A3047 RMK A01 T00190007  RH  092%=      5-min Rain = 0
KTR1 071554Z 36014KT 02/01 A3047 RMK A01 T00190007  RH  092%=      5-min Rain = 0
KTR1 071555Z 35013G18KT 02/01 A3047 RMK A01 T00190008  RH  092%=      5-min Rain = 0
KTR1 071556Z 35016KT 02/01 A3047 RMK A01 T00190008  RH  093%=      5-min Rain = 0
KTR1 071557Z 35015KT 02/01 A3047 RMK A01 T00190007  RH  092%=      5-min Rain = 0
KTR1 071558Z 36017KT 02/01 A3047 RMK A01 T00190007  RH  092%=      5-min Rain = 0
KTR1 071559Z 00015KT 02/01 A3047 RMK A01 T00190007  RH  092%=      5-min Rain = 0
KTR1 071600Z 36014G19KT 02/01 A3047 RMK A01 T00190007  RH  092%=      5-min Rain = 0
KTR1 071601Z 36016G21KT 02/01 A3046 RMK A01 T00190008  RH  092%=      5-min Rain = 0
KTR1 071602Z 00015KT 02/01 A3046 RMK A01 T00180007  RH  092%=      5-min Rain = 0
KTR1 071603Z 01018G23KT 02/01 A3046 RMK A01 T00190008  RH  092%=      5-min Rain = 0
KTR1 071604Z 01017KT 02/01 A3046 RMK A01 T00190007  RH  092%=      5-min Rain = 0
KTR1 071605Z 01019KT 02/01 A3046 RMK A01 T00180006  RH  091%=      5-min Rain = 0
KTR1 071606Z 00015KT 02/01 A3046 RMK A01 T00180005  RH  091%=      5-min Rain = 0
KTR1 071607Z 01015KT 02/01 A3046 RMK A01 T00180006  RH  092%=      5-min Rain = 0
KTR1 071608Z 00014G19KT 02/01 A3046 RMK A01 T00180006  RH  092%=      5-min Rain = 0
KTR1 071609Z 01020G25KT 02/01 A3046 RMK A01 T00180006  RH  092%=      5-min Rain = 0
KTR1 071610Z 00019KT 02/01 A3046 RMK A01 T00180005  RH  091%=      5-min Rain = 0
KTR1 071611Z 01017KT 02/01 A3046 RMK A01 T00180005  RH  091%=      5-min Rain = 0
KTR1 071612Z 01019G24KT 02/01 A3046 RMK A01 T00180006  RH  092%=      5-min Rain = 0
KTR1 071613Z 01016KT 02/01 A3045 RMK A01 T00180006  RH  092%=      5-min Rain = 0
KTR1 071614Z 01014G21KT 02/01 A3045 RMK A01 T00180007  RH  092%=      5-min Rain = 0
KTR1 071615Z 01017KT 02/01 A3045 RMK A01 T00180007  RH  093%=      5-min Rain = 0
KTR1 071616Z 01015G20KT 02/01 A3045 RMK A01 T00180007  RH  092%=      5-min Rain = 0
KTR1 071617Z 01018G24KT 02/01 A3045 RMK A01 T00190007  RH  092%=      5-min Rain = 0
KTR1 071618Z 01018G25KT 02/01 A3045 RMK A01 T00190006  RH  091%=      5-min Rain = 0
KTR1 071619Z 01017G24KT 02/01 A3046 RMK A01 T00190006  RH  091%=      5-min Rain = 0
KTR1 071620Z 01017KT 02/01 A3045 RMK A01 T00180005  RH  091%=      5-min Rain = 0
KTR1 071621Z 01017G22KT 02/01 A3045 RMK A01 T00180006  RH  091%=      5-min Rain = 0
KTR1 071622Z 01019KT 02/01 A3046 RMK A01 T00180005  RH  091%=      5-min Rain = 0
KTR1 071623Z 02016KT 02/01 A3046 RMK A01 T00180005  RH  091%=      5-min Rain = 0
KTR1 071624Z 01012KT 02/01 A3046 RMK A01 T00190006  RH  092%=      5-min Rain = 0
KTR1 071625Z 01011KT 02/01 A3046 RMK A01 T00190008  RH  092%=      5-min Rain = 0
KTR1 071626Z 01013KT 02/01 A3047 RMK A01 T00200009  RH  092%=      5-min Rain = 0
KTR1 071627Z 00015KT 02/01 A3047 RMK A01 T00200008  RH  092%=      5-min Rain = 0
KTR1 071628Z 00010G15KT 02/01 A3047 RMK A01 T00190007  RH  092%=      5-min Rain = 0
KTR1 071629Z 01012KT 02/01 A3047 RMK A01 T00200009  RH  093%=      5-min Rain = 0
KTR1 071630Z 01012KT 02/01 A3047 RMK A01 T00190009  RH  093%=      5-min Rain = 0
KTR1 071631Z 01013KT 02/01 A3047 RMK A01 T00200009  RH  093%=      5-min Rain = 0
KTR1 071632Z 00011KT 02/01 A3047 RMK A01 T00190009  RH  093%=      5-min Rain = 0
KTR1 071633Z 01009KT 02/01 A3048 RMK A01 T00200010  RH  093%=      5-min Rain = 0
KTR1 071634Z 00009KT 02/01 A3048 RMK A01 T00200011  RH  094%=      5-min Rain = 0
KTR1 071635Z 35011KT 02/01 A3048 RMK A01 T00200011  RH  094%=      5-min Rain = 0
KTR1 071636Z 00011KT 02/01 A3048 RMK A01 T00200011  RH  094%=      5-min Rain = 0
KTR1 071637Z 00009KT 02/01 A3048 RMK A01 T00200011  RH  094%=      5-min Rain = 0
KTR1 071638Z 36013KT 02/01 A3048 RMK A01 T00200011  RH  094%=      5-min Rain = 0
KTR1 071639Z 36013KT 02/01 A3048 RMK A01 T00200010  RH  093%=      5-min Rain = 0
KTR1 071640Z 36012KT 02/01 A3048 RMK A01 T00190009  RH  093%=      5-min Rain = 0
KTR1 071641Z 36012KT 02/01 A3048 RMK A01 T00200010  RH  093%=      5-min Rain = 0
KTR1 071642Z 35014KT 02/01 A3049 RMK A01 T00190009  RH  093%=      5-min Rain = 0
KTR1 071643Z 36012KT 02/01 A3049 RMK A01 T00190009  RH  093%=      5-min Rain = 0
KTR1 071644Z 35013KT 02/01 A3049 RMK A01 T00190009  RH  093%=      5-min Rain = 0
KTR1 071645Z 00015G20KT 02/01 A3049 RMK A01 T00190009  RH  093%=      5-min Rain = 0
KTR1 071646Z 00016KT 02/01 A3049 RMK A01 T00190007  RH  092%=      5-min Rain = 0
KTR1 071647Z 35015G20KT 02/01 A3049 RMK A01 T00190006  RH  091%=      5-min Rain = 0
KTR1 071648Z 35015KT 02/01 A3049 RMK A01 T00190006  RH  092%=      5-min Rain = 0
KTR1 071649Z 36017KT 02/01 A3049 RMK A01 T00190006  RH  091%=      5-min Rain = 0
KTR1 071650Z 00018KT 02/01 A3049 RMK A01 T00190005  RH  091%=      5-min Rain = 0
KTR1 071651Z 01018KT 02/00 A3049 RMK A01 T00190004  RH  090%=      5-min Rain = 0
KTR1 071652Z 01015G21KT 02/00 A3049 RMK A01 T00180004  RH  090%=      5-min Rain = 0
KTR1 071653Z 01016G21KT 02/00 A3049 RMK A01 T00180004  RH  091%=      5-min Rain = 0
KTR1 071654Z 01015KT 02/01 A3049 RMK A01 T00180005  RH  091%=      5-min Rain = 0
KTR1 071655Z 01014KT 02/01 A3049 RMK A01 T00180005  RH  091%=      5-min Rain = 0
KTR1 071656Z 01012KT 02/01 A3049 RMK A01 T00180005  RH  091%=      5-min Rain = 0
KTR1 071657Z 00011G16KT 02/01 A3049 RMK A01 T00180007  RH  092%=      5-min Rain = 0
KTR1 071658Z 00012KT 02/01 A3049 RMK A01 T00180007  RH  093%=      5-min Rain = 0
KTR1 071659Z 35013G18KT 02/01 A3049 RMK A01 T00180007  RH  093%=      5-min Rain = 0
KTR1 071700Z 36015KT 02/01 A3049 RMK A01 T00180007  RH  092%=      5-min Rain = 0
KTR1 071701Z 36015KT 02/01 A3049 RMK A01 T00180006  RH  092%=      5-min Rain = 0
KTR1 071702Z 01012KT 02/01 A3049 RMK A01 T00180006  RH  092%=      5-min Rain = 0
KTR1 071703Z 36012KT 02/01 A3049 RMK A01 T00180007  RH  093%=      5-min Rain = 0
KTR1 071704Z 00014KT 02/01 A3049 RMK A01 T00180007  RH  092%=      5-min Rain = 0
KTR1 071705Z 36015KT 02/01 A3049 RMK A01 T00180005  RH  091%=      5-min Rain = 0
KTR1 071706Z 35015G20KT 02/01 A3049 RMK A01 T00180005  RH  092%=      5-min Rain = 0
KTR1 071707Z 36013KT 02/01 A3049 RMK A01 T00180006  RH  092%=      5-min Rain = 0
KTR1 071708Z 35015KT 02/01 A3049 RMK A01 T00180007  RH  092%=      5-min Rain = 0
KTR1 071709Z 36013KT 02/01 A3049 RMK A01 T00180007  RH  092%=      5-min Rain = 0
KTR1 071710Z 35011KT 02/01 A3049 RMK A01 T00180007  RH  093%=      5-min Rain = 0
KTR1 071711Z 36014KT 02/01 A3049 RMK A01 T00180008  RH  093%=      5-min Rain = 0
KTR1 071712Z 01016KT 02/01 A3048 RMK A01 T00180008  RH  093%=      5-min Rain = 0
KTR1 071713Z 00013KT 02/01 A3048 RMK A01 T00180008  RH  093%=      5-min Rain = 0
KTR1 071714Z 36012G18KT 02/01 A3048 RMK A01 T00180008  RH  093%=      5-min Rain = 0
KTR1 071715Z 36018KT 02/01 A3048 RMK A01 T00180008  RH  093%=      5-min Rain = 0
KTR1 071716Z 35018KT 02/01 A3047 RMK A01 T00180007  RH  093%=      5-min Rain = 0
KTR1 071717Z 00017G22KT 02/01 A3047 RMK A01 T00170006  RH  092%=      5-min Rain = 0
KTR1 071718Z 36017KT 02/01 A3048 RMK A01 T00170006  RH  093%=      5-min Rain = 0
KTR1 071719Z 36017KT 02/01 A3048 RMK A01 T00170006  RH  093%=      5-min Rain = 0
KTR1 071720Z 36017KT 02/01 A3048 RMK A01 T00170006  RH  093%=      5-min Rain = 0
KTR1 071721Z 36014KT 02/01 A3048 RMK A01 T00160007  RH  093%=      5-min Rain = 0
KTR1 071722Z 36011KT 02/01 A3048 RMK A01 T00170008  RH  094%=      5-min Rain = 0
KTR1 071723Z 35013KT 02/01 A3048 RMK A01 T00170009  RH  095%=      5-min Rain = 0
KTR1 071724Z 35016G21KT 02/01 A3048 RMK A01 T00170010  RH  095%=      5-min Rain = 0
KTR1 071725Z 35015KT 02/01 A3049 RMK A01 T00170009  RH  094%=      5-min Rain = 0
KTR1 071726Z 36013KT 02/01 A3049 RMK A01 T00160007  RH  094%=      5-min Rain = 0
KTR1 071727Z 00012KT 02/01 A3049 RMK A01 T00160008  RH  094%=      5-min Rain = 0
KTR1 071728Z 00012KT 02/01 A3049 RMK A01 T00170008  RH  094%=      5-min Rain = 0
KTR1 071729Z 01012KT 02/01 A3049 RMK A01 T00170009  RH  095%=      5-min Rain = 0
KTR1 071730Z 01014KT 02/01 A3049 RMK A01 T00170009  RH  095%=      5-min Rain = 0
KTR1 071731Z 36011KT 02/01 A3049 RMK A01 T00170009  RH  095%=      5-min Rain = 0
KTR1 071732Z 36012G18KT 02/01 A305 RMK A01 T00160009  RH  095%=      5-min Rain = 0
KTR1 071733Z 36014KT 02/01 A305 RMK A01 T00160008  RH  094%=      5-min Rain = 0
KTR1 071734Z 36013KT 02/01 A305 RMK A01 T00150007  RH  094%=      5-min Rain = 0
KTR1 071735Z 35011KT 02/01 A305 RMK A01 T00160007  RH  094%=      5-min Rain = 0
KTR1 071736Z 35012KT 02/01 A305 RMK A01 T00160008  RH  095%=      5-min Rain = 0
KTR1 071737Z 36012KT 02/01 A305 RMK A01 T00160008  RH  095%=      5-min Rain = 0
KTR1 071738Z 36011G16KT 02/01 A305 RMK A01 T00160008  RH  095%=      5-min Rain = 0
KTR1 071739Z 35014KT 02/01 A3049 RMK A01 T00160008  RH  094%=      5-min Rain = 0
KTR1 071740Z 35014G20KT 02/01 A3049 RMK A01 T00160007  RH  094%=      5-min Rain = 0
KTR1 071741Z 36010KT 02/01 A3049 RMK A01 T00150007  RH  094%=      5-min Rain = 0.01
KTR1 071742Z 36010KT 02/01 A3049 RMK A01 T00160008  RH  095%=      5-min Rain = 0
KTR1 071743Z 01011KT 02/01 A3049 RMK A01 T00160009  RH  095%=      5-min Rain = 0
KTR1 071744Z 00013G20KT 02/01 A3049 RMK A01 T00160009  RH  095%=      5-min Rain = 0
KTR1 071745Z 00016KT 02/01 A3049 RMK A01 T00160008  RH  094%=      5-min Rain = 0
KTR1 071746Z 00014G19KT 02/01 A3048 RMK A01 T00160007  RH  094%=      5-min Rain = 0
KTR1 071747Z 00015KT 02/01 A3048 RMK A01 T00160006  RH  094%=      5-min Rain = 0
KTR1 071748Z 00016KT 02/01 A3048 RMK A01 T00160007  RH  094%=      5-min Rain = 0
KTR1 071749Z 00013KT 02/01 A3048 RMK A01 T00160006  RH  094%=      5-min Rain = 0
KTR1 071750Z 00016KT 02/01 A3048 RMK A01 T00160007  RH  094%=      5-min Rain = 0
KTR1 071751Z 00017KT 02/01 A3049 RMK A01 T00160006  RH  093%=      5-min Rain = 0
KTR1 071752Z 00016KT 02/01 A3049 RMK A01 T00160006  RH  093%=      5-min Rain = 0
KTR1 071753Z 01016KT 02/01 A3048 RMK A01 T00150006  RH  093%=      5-min Rain = 0
KTR1 071754Z 00014KT 02/01 A3048 RMK A01 T00150006  RH  094%=      5-min Rain = 0
KTR1 071755Z 36015KT 02/01 A3048 RMK A01 T00150007  RH  094%=      5-min Rain = 0
KTR1 071756Z 00015KT 02/01 A3048 RMK A01 T00150007  RH  094%=      5-min Rain = 0
KTR1 071757Z 00014KT 02/01 A3048 RMK A01 T00160007  RH  094%=      5-min Rain = 0
KTR1 071758Z 00013KT 02/01 A3048 RMK A01 T00160008  RH  095%=      5-min Rain = 0
KTR1 071759Z 01011G16KT 02/01 A3048 RMK A01 T00160009  RH  095%=      5-min Rain = 0
KTR1 071800Z 01014G19KT 02/01 A3048 RMK A01 T00160009  RH  095%=      5-min Rain = 0
KTR1 071801Z 01010KT 02/01 A3048 RMK A01 T00160009  RH  095%=      5-min Rain = 0
KTR1 071802Z 00010KT 02/01 A3048 RMK A01 T00170010  RH  095%=      5-min Rain = 0
KTR1 071803Z 01012KT 02/01 A3048 RMK A01 T00170011  RH  096%=      5-min Rain = 0
KTR1 071804Z 01013KT 02/01 A3048 RMK A01 T00170010  RH  096%=      5-min Rain = 0
KTR1 071805Z 01013KT 02/01 A3048 RMK A01 T00170011  RH  096%=      5-min Rain = 0
KTR1 071806Z 36013KT 02/01 A3048 RMK A01 T00170011  RH  095%=      5-min Rain = 0
KTR1 071807Z 00014KT 02/01 A3048 RMK A01 T00170010  RH  095%=      5-min Rain = 0
KTR1 071808Z 00010KT 02/01 A3048 RMK A01 T00170010  RH  095%=      5-min Rain = 0
KTR1 071809Z 36010KT 02/01 A3048 RMK A01 T00170010  RH  095%=      5-min Rain = 0
KTR1 071810Z 00013KT 02/01 A3048 RMK A01 T00170011  RH  095%=      5-min Rain = 0
KTR1 071811Z 35015KT 02/01 A3048 RMK A01 T00170010  RH  095%=      5-min Rain = 0
KTR1 071812Z 35014KT 02/01 A3048 RMK A01 T00170009  RH  095%=      5-min Rain = 0
KTR1 071813Z 34014KT 02/01 A3048 RMK A01 T00170010  RH  095%=      5-min Rain = 0
KTR1 071814Z 35014KT 02/01 A3048 RMK A01 T00170010  RH  095%=      5-min Rain = 0
KTR1 071815Z 35014KT 02/01 A3048 RMK A01 T00160009  RH  095%=      5-min Rain = 0
KTR1 071816Z 35009G15KT 02/01 A3048 RMK A01 T00160008  RH  095%=      5-min Rain = 0
KTR1 071817Z 35012G18KT 02/01 A3048 RMK A01 T00170010  RH  095%=      5-min Rain = 0.01
KTR1 071818Z 35017KT 02/01 A3048 RMK A01 T00170009  RH  095%=      5-min Rain = 0
KTR1 071819Z 35016KT 02/01 A3048 RMK A01 T00160007  RH  094%=      5-min Rain = 0
KTR1 071820Z 35014KT 02/01 A3048 RMK A01 T00150007  RH  094%=      5-min Rain = 0
KTR1 071821Z 35015KT 02/01 A3048 RMK A01 T00160007  RH  094%=      5-min Rain = 0
KTR1 071822Z 35016KT 02/01 A3048 RMK A01 T00150007  RH  094%=      5-min Rain = 0
KTR1 071823Z 34018KT 02/01 A3048 RMK A01 T00150007  RH  094%=      5-min Rain = 0
KTR1 071824Z 36019G24KT 02/00 A3048 RMK A01 T00150004  RH  093%=      5-min Rain = 0
KTR1 071825Z 35019G24KT 01/00 A3048 RMK A01 T00140004  RH  093%=      5-min Rain = 0
KTR1 071826Z 35016G21KT 01/00 A3048 RMK A01 T00140003  RH  093%=      5-min Rain = 0
KTR1 071827Z 35014KT 01/00 A3048 RMK A01 T00140003  RH  093%=      5-min Rain = 0
KTR1 071828Z 36014G19KT 01/00 A3048 RMK A01 T00140004  RH  093%=      5-min Rain = 0
KTR1 071829Z 00018KT 01/00 A3048 RMK A01 T00140003  RH  093%=      5-min Rain = 0
KTR1 071830Z 00014KT 01/00 A3048 RMK A01 T00130002  RH  093%=      5-min Rain = 0
KTR1 071831Z 35018KT 01/00 A3048 RMK A01 T00130003  RH  093%=      5-min Rain = 0
KTR1 071832Z 00019KT 01/00 A3048 RMK A01 T00130002  RH  092%=      5-min Rain = 0
KTR1 071833Z 00019KT 01/00 A3048 RMK A01 T00130002  RH  092%=      5-min Rain = 0
KTR1 071834Z 00016G21KT 01/00 A3048 RMK A01 T00130002  RH  092%=      5-min Rain = 0
KTR1 071835Z 00015KT 01/00 A3047 RMK A01 T00130002  RH  093%=      5-min Rain = 0
KTR1 071836Z 36012KT 01/00 A3047 RMK A01 T00130003  RH  093%=      5-min Rain = 0
KTR1 071837Z 00011KT 01/01 A3047 RMK A01 T00140006  RH  094%=      5-min Rain = 0
KTR1 071838Z 01013KT 02/01 A3046 RMK A01 T00150007  RH  095%=      5-min Rain = 0
KTR1 071839Z 00013KT 02/01 A3046 RMK A01 T00150006  RH  094%=      5-min Rain = 0
KTR1 071840Z 01014G19KT 01/01 A3046 RMK A01 T00140006  RH  094%=      5-min Rain = 0
KTR1 071841Z 35014KT 02/01 A3046 RMK A01 T00150005  RH  094%=      5-min Rain = 0
KTR1 071842Z 36012KT 02/01 A3046 RMK A01 T00150005  RH  094%=      5-min Rain = 0
KTR1 071843Z 36016G21KT 02/01 A3046 RMK A01 T00150006  RH  094%=      5-min Rain = 0
KTR1 071844Z 35016KT 02/01 A3046 RMK A01 T00150005  RH  093%=      5-min Rain = 0
KTR1 071845Z 36012KT 02/01 A3046 RMK A01 T00150005  RH  093%=      5-min Rain = 0
KTR1 071846Z 35014KT 02/01 A3046 RMK A01 T00150006  RH  094%=      5-min Rain = 0
KTR1 071847Z 36014KT 02/01 A3046 RMK A01 T00150006  RH  094%=      5-min Rain = 0
KTR1 071848Z 01015KT 02/01 A3046 RMK A01 T00150005  RH  093%=      5-min Rain = 0
KTR1 071849Z 36014KT 02/01 A3046 RMK A01 T00150005  RH  093%=      5-min Rain = 0
KTR1 071850Z 36013KT 02/01 A3046 RMK A01 T00150006  RH  094%=      5-min Rain = 0
KTR1 071851Z 35014KT 02/01 A3046 RMK A01 T00150006  RH  094%=      5-min Rain = 0
KTR1 071852Z 00014KT 02/01 A3046 RMK A01 T00150006  RH  094%=      5-min Rain = 0
KTR1 071853Z 36012KT 02/01 A3046 RMK A01 T00150006  RH  094%=      5-min Rain = 0
KTR1 071854Z 00015KT 02/01 A3046 RMK A01 T00150006  RH  094%=      5-min Rain = 0
KTR1 071855Z 00014KT 02/01 A3046 RMK A01 T00150006  RH  094%=      5-min Rain = 0
KTR1 071856Z 36015KT 02/01 A3046 RMK A01 T00150006  RH  094%=      5-min Rain = 0
KTR1 071857Z 35017KT 02/01 A3046 RMK A01 T00150006  RH  094%=      5-min Rain = 0
KTR1 071858Z 36015G21KT 01/00 A3046 RMK A01 T00140004  RH  093%=      5-min Rain = 0
KTR1 071859Z 35014G21KT 02/00 A3045 RMK A01 T00150004  RH  093%=      5-min Rain = 0
KTR1 071900Z 36015KT 02/00 A3045 RMK A01 T00150004  RH  093%=      5-min Rain = 0
KTR1 071901Z 00017KT 02/00 A3045 RMK A01 T00150003  RH  092%=      5-min Rain = 0
KTR1 071902Z 00017KT 02/00 A3045 RMK A01 T00150002  RH  091%=      5-min Rain = 0
KTR1 071903Z 00017KT 02/00 A3045 RMK A01 T00150003  RH  092%=      5-min Rain = 0
KTR1 071904Z 00017KT 01/00 A3045 RMK A01 T00140002  RH  092%=      5-min Rain = 0
KTR1 071905Z 36016KT 01/00 A3045 RMK A01 T00140002  RH  091%=      5-min Rain = 0
KTR1 071906Z 00015G20KT 01/00 A3045 RMK A01 T00140003  RH  092%=      5-min Rain = 0
KTR1 071907Z 36018KT 01/00 A3045 RMK A01 T00140003  RH  092%=      5-min Rain = 0
KTR1 071908Z 01017KT 01/00 A3045 RMK A01 T00140002  RH  092%=      5-min Rain = 0
KTR1 071909Z 01015G20KT 01/00 A3045 RMK A01 T00140002  RH  092%=      5-min Rain = 0
KTR1 071910Z 01017KT 01/00 A3045 RMK A01 T00140002  RH  092%=      5-min Rain = 0
KTR1 071911Z 00015KT 01/00 A3045 RMK A01 T00140002  RH  092%=      5-min Rain = 0
KTR1 071912Z 00012KT 01/00 A3045 RMK A01 T00140003  RH  092%=      5-min Rain = 0
KTR1 071913Z 35012KT 01/01 A3045 RMK A01 T00140005  RH  093%=      5-min Rain = 0
KTR1 071914Z 36016G21KT 02/01 A3045 RMK A01 T00150005  RH  093%=      5-min Rain = 0
KTR1 071915Z 00014KT 02/00 A3045 RMK A01 T00150004  RH  093%=      5-min Rain = 0
KTR1 071916Z 35013G18KT 02/01 A3045 RMK A01 T00150005  RH  093%=      5-min Rain = 0
KTR1 071917Z 36017KT 01/00 A3045 RMK A01 T00140004  RH  093%=      5-min Rain = 0
KTR1 071918Z 35014KT 01/00 A3045 RMK A01 T00140003  RH  092%=      5-min Rain = 0
KTR1 071919Z 35013G18KT 01/00 A3045 RMK A01 T00140004  RH  093%=      5-min Rain = 0
KTR1 071920Z 35013KT 01/00 A3045 RMK A01 T00140004  RH  093%=      5-min Rain = 0
KTR1 071921Z 35014KT 01/00 A3046 RMK A01 T00140004  RH  093%=      5-min Rain = 0
KTR1 071922Z 36015KT 01/00 A3046 RMK A01 T00140004  RH  092%=      5-min Rain = 0
KTR1 071923Z 35012KT 02/00 A3046 RMK A01 T00150003  RH  092%=      5-min Rain = 0
KTR1 071924Z 36014G21KT 02/00 A3045 RMK A01 T00150004  RH  093%=      5-min Rain = 0
KTR1 071925Z 35014G20KT 01/00 A3045 RMK A01 T00140004  RH  093%=      5-min Rain = 0
KTR1 071926Z 35011KT 02/00 A3045 RMK A01 T00150004  RH  093%=      5-min Rain = 0
KTR1 071927Z 00012KT 02/01 A3045 RMK A01 T00150005  RH  093%=      5-min Rain = 0
KTR1 071928Z 35011KT 02/01 A3045 RMK A01 T00150005  RH  093%=      5-min Rain = 0
KTR1 071929Z 35010KT 02/01 A3044 RMK A01 T00150005  RH  093%=      5-min Rain = 0
KTR1 071930Z 35012KT 02/01 A3044 RMK A01 T00150005  RH  093%=      5-min Rain = 0
KTR1 071931Z 35013KT 02/01 A3044 RMK A01 T00150005  RH  093%=      5-min Rain = 0
KTR1 071932Z 35013G18KT 02/00 A3044 RMK A01 T00150004  RH  092%=      5-min Rain = 0
KTR1 071933Z 35015KT 02/00 A3045 RMK A01 T00150004  RH  092%=      5-min Rain = 0
KTR1 071934Z 35014G19KT 01/00 A3045 RMK A01 T00140004  RH  093%=      5-min Rain = 0
KTR1 071935Z 35014G19KT 02/00 A3045 RMK A01 T00150004  RH  093%=      5-min Rain = 0
KTR1 071936Z 35017KT 01/00 A3045 RMK A01 T00140003  RH  092%=      5-min Rain = 0
KTR1 071937Z 35016KT 02/00 A3045 RMK A01 T00150002  RH  091%=      5-min Rain = 0
KTR1 071938Z 35014G22KT 01/00 A3045 RMK A01 T00140002  RH  091%=      5-min Rain = 0
KTR1 071939Z 34017KT 02/00 A3044 RMK A01 T00150002  RH  091%=      5-min Rain = 0
KTR1 071940Z 35015KT 01/00 A3044 RMK A01 T00140000  RH  090%=      5-min Rain = 0
KTR1 071941Z 35014KT 02/00 A3044 RMK A01 T00150001  RH  091%=      5-min Rain = 0
KTR1 071942Z 35014KT 02/00 A3044 RMK A01 T00150002  RH  092%=      5-min Rain = 0
KTR1 071943Z 35014KT 02/00 A3044 RMK A01 T00150002  RH  091%=      5-min Rain = 0
KTR1 071944Z 35012KT 01/00 A3044 RMK A01 T00140002  RH  091%=      5-min Rain = 0
KTR1 071945Z 35016KT 01/00 A3044 RMK A01 T00140002  RH  091%=      5-min Rain = 0
KTR1 071946Z 35014KT 01/00 A3044 RMK A01 T00140002  RH  091%=      5-min Rain = 0
KTR1 071947Z 34014G20KT 02/00 A3044 RMK A01 T00150003  RH  092%=      5-min Rain = 0
KTR1 071948Z 35016KT 02/00 A3044 RMK A01 T00150003  RH  092%=      5-min Rain = 0
KTR1 071949Z 35014G19KT 02/00 A3044 RMK A01 T00150003  RH  091%=      5-min Rain = 0
KTR1 071950Z 35016G22KT 02/00 A3044 RMK A01 T00150002  RH  091%=      5-min Rain = 0
KTR1 071951Z 35017G22KT 01/00 A3044 RMK A01 T00140001  RH  091%=      5-min Rain = 0
KTR1 071952Z 35017KT 01/00 A3044 RMK A01 T00140001  RH  091%=      5-min Rain = 0
KTR1 071953Z 35016KT 01/00 A3044 RMK A01 T00140001  RH  091%=      5-min Rain = 0
KTR1 071954Z 35015G20KT 02/00 A3044 RMK A01 T00150001  RH  091%=      5-min Rain = 0
KTR1 071955Z 36015KT 02/00 A3044 RMK A01 T00150000  RH  090%=      5-min Rain = 0
KTR1 071956Z 36013KT 02/00 A3044 RMK A01 T001500-0  RH  089%=      5-min Rain = 0
KTR1 071957Z 36014KT 02/00 A3044 RMK A01 T00160000  RH  090%=      5-min Rain = 0
KTR1 071958Z 35013G18KT 02/00 A3044 RMK A01 T00160001  RH  090%=      5-min Rain = 0
KTR1 071959Z 36013KT 02/00 A3044 RMK A01 T00160001  RH  090%=      5-min Rain = 0
KTR1 072000Z 00014KT 02/00 A3044 RMK A01 T00160000  RH  089%=      5-min Rain = 0
KTR1 072001Z 01014G19KT 02/00 A3044 RMK A01 T001600-0  RH  089%=      5-min Rain = 0
KTR1 072002Z 00015KT 02/M00 A3044 RMK A01 T00161001  RH  089%=      5-min Rain = 0
KTR1 072003Z 01015KT 02/M00 A3044 RMK A01 T00151002  RH  088%=      5-min Rain = 0
KTR1 072004Z 36013KT 02/M00 A3044 RMK A01 T00161001  RH  089%=      5-min Rain = 0
KTR1 072005Z 35012KT 02/00 A3043 RMK A01 T00150000  RH  090%=      5-min Rain = 0
KTR1 072006Z 35012KT 02/00 A3043 RMK A01 T00160001  RH  090%=      5-min Rain = 0
KTR1 072007Z 36012KT 02/00 A3043 RMK A01 T00160001  RH  090%=      5-min Rain = 0
KTR1 072008Z 35013KT 02/00 A3043 RMK A01 T00160001  RH  090%=      5-min Rain = 0
KTR1 072009Z 36014KT 02/00 A3043 RMK A01 T00160000  RH  090%=      5-min Rain = 0
KTR1 072010Z 35013KT 02/00 A3043 RMK A01 T00160000  RH  089%=      5-min Rain = 0
KTR1 072011Z 36017KT 02/00 A3043 RMK A01 T001600-0  RH  089%=      5-min Rain = 0
KTR1 072012Z 36017KT 02/M00 A3042 RMK A01 T00161001  RH  089%=      5-min Rain = 0
KTR1 072013Z 00015KT 02/M00 A3042 RMK A01 T00151001  RH  089%=      5-min Rain = 0
KTR1 072014Z 35013KT 02/M00 A3042 RMK A01 T00161001  RH  089%=      5-min Rain = 0
KTR1 072015Z 36016KT 02/M00 A3042 RMK A01 T00161001  RH  089%=      5-min Rain = 0
KTR1 072016Z 00015G20KT 02/M00 A3042 RMK A01 T00151001  RH  089%=      5-min Rain = 0
KTR1 072017Z 36015G20KT 02/00 A3042 RMK A01 T001600-0  RH  089%=      5-min Rain = 0
KTR1 072018Z 35014KT 02/00 A3042 RMK A01 T00160000  RH  089%=      5-min Rain = 0
KTR1 072019Z 36016KT 02/M00 A3042 RMK A01 T00151001  RH  089%=      5-min Rain = 0
KTR1 072020Z 36015KT 02/M00 A3043 RMK A01 T00151002  RH  088%=      5-min Rain = 0
KTR1 072021Z 35012KT 02/M00 A3043 RMK A01 T00161001  RH  089%=      5-min Rain = 0
KTR1 072022Z 35012KT 02/00 A3043 RMK A01 T00160001  RH  090%=      5-min Rain = 0
KTR1 072023Z 35012KT 02/00 A3043 RMK A01 T00160001  RH  090%=      5-min Rain = 0
KTR1 072024Z 35013KT 02/00 A3043 RMK A01 T00160001  RH  090%=      5-min Rain = 0
KTR1 072025Z 35013G18KT 02/00 A3043 RMK A01 T00160001  RH  090%=      5-min Rain = 0
KTR1 072026Z 36013KT 02/00 A3043 RMK A01 T00160001  RH  089%=      5-min Rain = 0
KTR1 072027Z 01011KT 02/00 A3043 RMK A01 T00170002  RH  090%=      5-min Rain = 0
KTR1 072028Z 01014KT 02/00 A3043 RMK A01 T00170002  RH  090%=      5-min Rain = 0
KTR1 072029Z 35012KT 02/00 A3043 RMK A01 T00170001  RH  089%=      5-min Rain = 0
KTR1 072030Z 35013KT 02/00 A3043 RMK A01 T00170002  RH  090%=      5-min Rain = 0
KTR1 072031Z 35013KT 02/00 A3043 RMK A01 T00170002  RH  090%=      5-min Rain = 0
KTR1 072032Z 36013KT 02/00 A3043 RMK A01 T00170001  RH  089%=      5-min Rain = 0
KTR1 072033Z 36014KT 02/00 A3043 RMK A01 T00170001  RH  089%=      5-min Rain = 0
KTR1 072034Z 35009KT 02/00 A3043 RMK A01 T00170001  RH  089%=      5-min Rain = 0
KTR1 072035Z 35012G17KT 02/00 A3043 RMK A01 T00170003  RH  090%=      5-min Rain = 0
KTR1 072036Z 35014KT 02/00 A3043 RMK A01 T00170003  RH  090%=      5-min Rain = 0
KTR1 072037Z 35012KT 02/00 A3043 RMK A01 T00170001  RH  089%=      5-min Rain = 0
KTR1 072038Z 35010KT 02/00 A3044 RMK A01 T00170002  RH  089%=      5-min Rain = 0
KTR1 072039Z 34013KT 02/00 A3044 RMK A01 T00170003  RH  090%=      5-min Rain = 0
KTR1 072040Z 35015KT 02/00 A3044 RMK A01 T00170002  RH  089%=      5-min Rain = 0
KTR1 072041Z 35013KT 02/00 A3044 RMK A01 T00170000  RH  089%=      5-min Rain = 0
KTR1 072042Z 35013KT 02/00 A3044 RMK A01 T00170001  RH  089%=      5-min Rain = 0
KTR1 072043Z 35013KT 02/M00 A3044 RMK A01 T00171001  RH  088%=      5-min Rain = 0
KTR1 072044Z 35011KT 02/00 A3044 RMK A01 T00170000  RH  089%=      5-min Rain = 0
KTR1 072045Z 36012KT 02/00 A3044 RMK A01 T00170002  RH  089%=      5-min Rain = 0
KTR1 072046Z 35012KT 02/00 A3044 RMK A01 T00180000  RH  088%=      5-min Rain = 0
KTR1 072047Z 35010KT 02/00 A3044 RMK A01 T00180000  RH  088%=      5-min Rain = 0
KTR1 072048Z 01010KT 02/00 A3044 RMK A01 T00180002  RH  089%=      5-min Rain = 0
KTR1 072049Z 36011KT 02/00 A3045 RMK A01 T00190003  RH  089%=      5-min Rain = 0
KTR1 072050Z 35014KT 02/00 A3045 RMK A01 T00190001  RH  088%=      5-min Rain = 0
KTR1 072051Z 00014KT 02/M00 A3044 RMK A01 T00181001  RH  087%=      5-min Rain = 0
KTR1 072052Z 35015KT 02/M00 A3044 RMK A01 T00181001  RH  087%=      5-min Rain = 0
KTR1 072053Z 35013KT 02/M00 A3044 RMK A01 T00181001  RH  087%=      5-min Rain = 0
KTR1 072054Z 35011KT 02/00 A3044 RMK A01 T00180001  RH  089%=      5-min Rain = 0
KTR1 072055Z 35012KT 02/00 A3044 RMK A01 T00180002  RH  089%=      5-min Rain = 0
KTR1 072056Z 35013KT 02/00 A3044 RMK A01 T00180000  RH  088%=      5-min Rain = 0
KTR1 072057Z 35011KT 02/00 A3044 RMK A01 T00180000  RH  088%=      5-min Rain = 0
KTR1 072058Z 35013KT 02/00 A3044 RMK A01 T00180001  RH  089%=      5-min Rain = 0
KTR1 072059Z 35013KT 02/00 A3044 RMK A01 T00180002  RH  089%=      5-min Rain = 0
KTR1 072100Z 35013KT 02/00 A3044 RMK A01 T00180001  RH  089%=      5-min Rain = 0
KTR1 072101Z 34013KT 02/00 A3044 RMK A01 T00180001  RH  088%=      5-min Rain = 0
KTR1 072102Z 34013KT 02/00 A3044 RMK A01 T00180000  RH  088%=      5-min Rain = 0
KTR1 072103Z 34013KT 02/00 A3044 RMK A01 T00180000  RH  088%=      5-min Rain = 0
KTR1 072104Z 34012KT 02/00 A3044 RMK A01 T001800-0  RH  088%=      5-min Rain = 0
KTR1 072105Z 35013KT 02/00 A3044 RMK A01 T00180001  RH  089%=      5-min Rain = 0
KTR1 072106Z 34013KT 02/00 A3044 RMK A01 T00180001  RH  089%=      5-min Rain = 0
KTR1 072107Z 35010KT 02/00 A3044 RMK A01 T00180001  RH  089%=      5-min Rain = 0
KTR1 072108Z 35011KT 02/00 A3044 RMK A01 T00180002  RH  089%=      5-min Rain = 0
KTR1 072109Z 35012KT 02/00 A3044 RMK A01 T00180001  RH  089%=      5-min Rain = 0
KTR1 072110Z 34010KT 02/00 A3044 RMK A01 T00180001  RH  088%=      5-min Rain = 0
KTR1 072111Z 34012KT 02/00 A3044 RMK A01 T00180001  RH  089%=      5-min Rain = 0
KTR1 072112Z 34014KT 02/00 A3045 RMK A01 T00180002  RH  089%=      5-min Rain = 0
KTR1 072113Z 34013KT 02/00 A3045 RMK A01 T00180000  RH  088%=      5-min Rain = 0
KTR1 072114Z 35014KT 02/00 A3045 RMK A01 T00180001  RH  088%=      5-min Rain = 0
KTR1 072115Z 35013KT 02/00 A3045 RMK A01 T001800-0  RH  088%=      5-min Rain = 0
KTR1 072116Z 34015KT 02/M00 A3044 RMK A01 T00181001  RH  087%=      5-min Rain = 0
KTR1 072117Z 34015KT 02/M00 A3044 RMK A01 T00181002  RH  087%=      5-min Rain = 0
KTR1 072118Z 34015KT 02/M00 A3044 RMK A01 T00181001  RH  087%=      5-min Rain = 0
KTR1 072119Z 35012KT 02/M00 A3044 RMK A01 T00181001  RH  088%=      5-min Rain = 0
KTR1 072120Z 35014KT 02/00 A3044 RMK A01 T001800-0  RH  088%=      5-min Rain = 0
KTR1 072121Z 35013KT 02/M00 A3044 RMK A01 T00181001  RH  088%=      5-min Rain = 0
KTR1 072122Z 35016KT 02/M00 A3043 RMK A01 T00181001  RH  087%=      5-min Rain = 0
KTR1 072123Z 35015KT 02/M00 A3043 RMK A01 T00181002  RH  087%=      5-min Rain = 0
KTR1 072124Z 35015KT 02/M00 A3044 RMK A01 T00181002  RH  087%=      5-min Rain = 0
KTR1 072125Z 35012KT 02/M00 A3044 RMK A01 T00181002  RH  087%=      5-min Rain = 0
KTR1 072126Z 35011G17KT 02/M00 A3044 RMK A01 T00181001  RH  087%=      5-min Rain = 0
KTR1 072127Z 35010KT 02/00 A3044 RMK A01 T00180000  RH  088%=      5-min Rain = 0
KTR1 072128Z 35010KT 02/00 A3044 RMK A01 T00180001  RH  088%=      5-min Rain = 0
KTR1 072129Z 34011KT 02/00 A3044 RMK A01 T00180001  RH  088%=      5-min Rain = 0
KTR1 072130Z 34013KT 02/00 A3045 RMK A01 T00180000  RH  088%=      5-min Rain = 0
KTR1 072131Z 34011KT 02/M00 A3045 RMK A01 T00181001  RH  087%=      5-min Rain = 0
KTR1 072132Z 35010KT 02/M00 A3045 RMK A01 T00171001  RH  088%=      5-min Rain = 0
KTR1 072133Z 34012KT 02/00 A3045 RMK A01 T001700-0  RH  088%=      5-min Rain = 0
KTR1 072134Z 34010KT 02/00 A3045 RMK A01 T001700-0  RH  088%=      5-min Rain = 0
KTR1 072135Z 35015KT 02/M00 A3045 RMK A01 T00171001  RH  088%=      5-min Rain = 0
KTR1 072136Z 35014KT 02/M01 A3045 RMK A01 T00161005  RH  086%=      5-min Rain = 0
KTR1 072137Z 34010G16KT 02/M01 A3045 RMK A01 T00151005  RH  087%=      5-min Rain = 0
KTR1 072138Z 34014KT 02/M00 A3045 RMK A01 T00161003  RH  088%=      5-min Rain = 0
KTR1 072139Z 34012KT 02/M00 A3045 RMK A01 T00151004  RH  087%=      5-min Rain = 0
KTR1 072140Z 34014KT 02/M00 A3045 RMK A01 T00151004  RH  087%=      5-min Rain = 0
KTR1 072141Z 35011KT 02/M00 A3045 RMK A01 T00151004  RH  087%=      5-min Rain = 0
KTR1 072142Z 35010KT 02/M00 A3045 RMK A01 T00151004  RH  087%=      5-min Rain = 0
KTR1 072143Z 34008KT 02/M00 A3045 RMK A01 T00151003  RH  088%=      5-min Rain = 0
KTR1 072144Z 34012KT 02/M00 A3045 RMK A01 T00151002  RH  088%=      5-min Rain = 0
KTR1 072145Z 34011KT 02/M00 A3045 RMK A01 T00151003  RH  088%=      5-min Rain = 0
KTR1 072146Z 34009KT 02/M00 A3045 RMK A01 T00151003  RH  088%=      5-min Rain = 0
KTR1 072147Z 35014KT 02/M00 A3045 RMK A01 T00151003  RH  088%=      5-min Rain = 0
KTR1 072148Z 36012KT 02/M00 A3045 RMK A01 T00151004  RH  087%=      5-min Rain = 0
KTR1 072149Z 35008KT 02/M00 A3045 RMK A01 T00151004  RH  087%=      5-min Rain = 0
KTR1 072150Z 35009KT 02/M00 A3045 RMK A01 T00151003  RH  088%=      5-min Rain = 0
KTR1 072151Z 34012KT 02/M00 A3045 RMK A01 T00151003  RH  088%=      5-min Rain = 0
KTR1 072152Z 35011KT 02/M01 A3045 RMK A01 T00151005  RH  086%=      5-min Rain = 0
KTR1 072153Z 35009KT 02/M01 A3046 RMK A01 T00151005  RH  086%=      5-min Rain = 0
KTR1 072154Z 35008KT 02/M00 A3046 RMK A01 T00151004  RH  087%=      5-min Rain = 0
KTR1 072155Z 35013KT 02/M00 A3046 RMK A01 T00151004  RH  087%=      5-min Rain = 0
KTR1 072156Z 35010KT 02/M01 A3046 RMK A01 T00161006  RH  085%=      5-min Rain = 0
KTR1 072157Z 35010KT 02/M01 A3046 RMK A01 T00151007  RH  085%=      5-min Rain = 0
KTR1 072158Z 36008KT 02/M01 A3046 RMK A01 T00151006  RH  086%=      5-min Rain = 0
KTR1 072159Z 35008KT 02/M00 A3045 RMK A01 T00161004  RH  087%=      5-min Rain = 0
KTR1 072200Z 35008KT 02/M00 A3045 RMK A01 T00161003  RH  087%=      5-min Rain = 0
KTR1 072201Z 35009KT 02/M00 A3045 RMK A01 T00161003  RH  087%=      5-min Rain = 0
KTR1 072202Z 35009KT 02/M00 A3045 RMK A01 T00161004  RH  087%=      5-min Rain = 0
KTR1 072203Z 35008KT 02/M00 A3045 RMK A01 T00161003  RH  087%=      5-min Rain = 0
KTR1 072204Z 35009KT 02/M00 A3045 RMK A01 T00161003  RH  087%=      5-min Rain = 0
KTR1 072205Z 00009KT 02/M00 A3045 RMK A01 T00161004  RH  086%=      5-min Rain = 0
KTR1 072206Z 35010KT 02/M00 A3045 RMK A01 T00161004  RH  087%=      5-min Rain = 0
KTR1 072207Z 35010KT 02/M01 A3045 RMK A01 T00161006  RH  086%=      5-min Rain = 0
KTR1 072208Z 35010KT 02/M00 A3045 RMK A01 T00161004  RH  086%=      5-min Rain = 0
KTR1 072209Z 35009KT 02/M00 A3045 RMK A01 T00161004  RH  087%=      5-min Rain = 0
KTR1 072210Z 35009KT 02/M00 A3045 RMK A01 T00161004  RH  087%=      5-min Rain = 0
KTR1 072211Z 35010KT 02/M00 A3045 RMK A01 T00161003  RH  087%=      5-min Rain = 0
KTR1 072212Z 35010KT 02/M00 A3045 RMK A01 T00161004  RH  086%=      5-min Rain = 0
KTR1 072213Z 36010KT 02/M00 A3045 RMK A01 T00161004  RH  087%=      5-min Rain = 0
KTR1 072214Z 35010KT 02/M00 A3045 RMK A01 T00161004  RH  087%=      5-min Rain = 0
KTR1 072215Z 35007KT 02/M00 A3045 RMK A01 T00161004  RH  087%=      5-min Rain = 0
KTR1 072216Z 35008KT 02/M00 A3045 RMK A01 T00161003  RH  087%=      5-min Rain = 0
KTR1 072217Z 35011KT 02/M00 A3045 RMK A01 T00161003  RH  087%=      5-min Rain = 0
KTR1 072218Z 35008KT 02/M00 A3045 RMK A01 T00161003  RH  087%=      5-min Rain = 0
KTR1 072219Z 35007KT 02/M00 A3045 RMK A01 T00171002  RH  087%=      5-min Rain = 0
KTR1 072220Z 35008KT 02/M00 A3045 RMK A01 T00171002  RH  088%=      5-min Rain = 0
KTR1 072221Z 36009KT 02/M00 A3045 RMK A01 T00171002  RH  088%=      5-min Rain = 0
KTR1 072222Z 35010KT 02/M00 A3045 RMK A01 T00171003  RH  087%=      5-min Rain = 0
KTR1 072223Z 36008KT 02/M00 A3045 RMK A01 T00171003  RH  087%=      5-min Rain = 0
KTR1 072224Z 35008KT 02/M00 A3045 RMK A01 T00171002  RH  087%=      5-min Rain = 0
KTR1 072225Z 35009KT 02/M00 A3045 RMK A01 T00171002  RH  087%=      5-min Rain = 0
KTR1 072226Z 36009KT 02/M00 A3045 RMK A01 T00171002  RH  087%=      5-min Rain = 0
KTR1 072227Z 36009KT 02/M00 A3045 RMK A01 T00181001  RH  087%=      5-min Rain = 0
KTR1 072228Z 35009KT 02/M00 A3045 RMK A01 T00181001  RH  087%=      5-min Rain = 0
KTR1 072229Z 35011KT 02/M00 A3045 RMK A01 T00181002  RH  087%=      5-min Rain = 0
KTR1 072230Z 36011KT 02/M00 A3045 RMK A01 T00181003  RH  086%=      5-min Rain = 0
KTR1 072231Z 35009KT 02/M00 A3045 RMK A01 T00181002  RH  086%=      5-min Rain = 0
KTR1 072232Z 35007KT 02/M00 A3045 RMK A01 T00181002  RH  087%=      5-min Rain = 0
KTR1 072233Z 35008KT 02/M00 A3045 RMK A01 T00181001  RH  087%=      5-min Rain = 0
KTR1 072234Z 35010KT 02/M00 A3044 RMK A01 T00181001  RH  087%=      5-min Rain = 0
KTR1 072235Z 35010KT 02/M00 A3044 RMK A01 T00191002  RH  086%=      5-min Rain = 0
KTR1 072236Z 36009KT 02/M00 A3045 RMK A01 T00181002  RH  086%=      5-min Rain = 0
KTR1 072237Z 35011KT 02/M00 A3045 RMK A01 T00191002  RH  086%=      5-min Rain = 0
KTR1 072238Z 34010KT 02/M00 A3045 RMK A01 T00191003  RH  086%=      5-min Rain = 0
KTR1 072239Z 34010KT 02/M00 A3045 RMK A01 T00191002  RH  086%=      5-min Rain = 0
KTR1 072240Z 35009KT 02/M00 A3045 RMK A01 T00191002  RH  086%=      5-min Rain = 0
KTR1 072241Z 34008KT 02/M00 A3045 RMK A01 T00191002  RH  086%=      5-min Rain = 0
KTR1 072242Z 35010KT 02/M00 A3045 RMK A01 T00191001  RH  087%=      5-min Rain = 0
KTR1 072243Z 35011KT 02/M00 A3045 RMK A01 T00191001  RH  086%=      5-min Rain = 0
KTR1 072244Z 36010KT 02/M00 A3045 RMK A01 T00191001  RH  086%=      5-min Rain = 0
KTR1 072245Z 36007KT 02/M00 A3044 RMK A01 T00191001  RH  087%=      5-min Rain = 0
KTR1 072246Z 36007KT 02/00 A3044 RMK A01 T00190002  RH  088%=      5-min Rain = 0
KTR1 072247Z 00009KT 02/00 A3044 RMK A01 T00200001  RH  088%=      5-min Rain = 0
KTR1 072248Z 36009KT 02/00 A3044 RMK A01 T00200001  RH  087%=      5-min Rain = 0
KTR1 072249Z 36011KT 02/00 A3044 RMK A01 T00200001  RH  087%=      5-min Rain = 0
KTR1 072250Z 36010KT 02/00 A3044 RMK A01 T00200000  RH  087%=      5-min Rain = 0
KTR1 072251Z 35010KT 02/00 A3044 RMK A01 T00200000  RH  087%=      5-min Rain = 0
KTR1 072252Z 36011KT 02/00 A3044 RMK A01 T00200000  RH  087%=      5-min Rain = 0
KTR1 072253Z 35011KT 02/00 A3044 RMK A01 T002000-0  RH  086%=      5-min Rain = 0
KTR1 072254Z 35008KT 02/00 A3044 RMK A01 T00200000  RH  087%=      5-min Rain = 0
KTR1 072255Z 35010KT 02/00 A3044 RMK A01 T00200001  RH  087%=      5-min Rain = 0
KTR1 072256Z 35010KT 02/00 A3044 RMK A01 T00200001  RH  087%=      5-min Rain = 0
KTR1 072257Z 35010KT 02/00 A3044 RMK A01 T00200001  RH  087%=      5-min Rain = 0
KTR1 072258Z 35013KT 02/00 A3044 RMK A01 T00200001  RH  087%=      5-min Rain = 0
KTR1 072259Z 35010KT 02/00 A3044 RMK A01 T002000-0  RH  087%=      5-min Rain = 0
KTR1 072300Z 35010KT 02/00 A3044 RMK A01 T00200001  RH  087%=      5-min Rain = 0
KTR1 072301Z 35011KT 02/00 A3044 RMK A01 T00200002  RH  088%=      5-min Rain = 0
KTR1 072302Z 35012KT 02/00 A3044 RMK A01 T00210002  RH  087%=      5-min Rain = 0
KTR1 072303Z 35010KT 02/00 A3044 RMK A01 T00200001  RH  087%=      5-min Rain = 0
KTR1 072304Z 35009KT 02/00 A3045 RMK A01 T00210003  RH  088%=      5-min Rain = 0
KTR1 072305Z 35009KT 02/00 A3045 RMK A01 T00210003  RH  088%=      5-min Rain = 0
KTR1 072306Z 34011KT 02/00 A3045 RMK A01 T00210003  RH  088%=      5-min Rain = 0
KTR1 072307Z 35011KT 02/00 A3045 RMK A01 T00210003  RH  088%=      5-min Rain = 0
KTR1 072308Z 34013KT 02/00 A3045 RMK A01 T00210002  RH  087%=      5-min Rain = 0
KTR1 072309Z 34012KT 02/00 A3045 RMK A01 T00210002  RH  088%=      5-min Rain = 0
KTR1 072310Z 34012KT 02/00 A3045 RMK A01 T00210003  RH  088%=      5-min Rain = 0
KTR1 072311Z 35011KT 02/00 A3045 RMK A01 T00210003  RH  088%=      5-min Rain = 0
KTR1 072312Z 34012KT 02/00 A3045 RMK A01 T00210004  RH  088%=      5-min Rain = 0
KTR1 072313Z 35013KT 02/00 A3045 RMK A01 T00210004  RH  088%=      5-min Rain = 0
KTR1 072314Z 35012KT 02/00 A3045 RMK A01 T00220003  RH  088%=      5-min Rain = 0
KTR1 072315Z 35012KT 02/00 A3045 RMK A01 T00210004  RH  088%=      5-min Rain = 0
KTR1 072316Z 35010KT 02/00 A3045 RMK A01 T00210004  RH  089%=      5-min Rain = 0
KTR1 072317Z 35009KT 02/01 A3045 RMK A01 T00210005  RH  089%=      5-min Rain = 0
KTR1 072318Z 34009KT 02/01 A3045 RMK A01 T00220006  RH  089%=      5-min Rain = 0
KTR1 072319Z 34011KT 02/01 A3045 RMK A01 T00220005  RH  089%=      5-min Rain = 0
KTR1 072320Z 35009KT 02/00 A3045 RMK A01 T00220004  RH  088%=      5-min Rain = 0
KTR1 072321Z 34012KT 02/00 A3045 RMK A01 T00220004  RH  088%=      5-min Rain = 0
KTR1 072322Z 34012KT 02/00 A3045 RMK A01 T00220004  RH  088%=      5-min Rain = 0
KTR1 072323Z 35010KT 02/00 A3045 RMK A01 T00220004  RH  088%=      5-min Rain = 0
KTR1 072324Z 35011KT 02/00 A3045 RMK A01 T00220004  RH  088%=      5-min Rain = 0
KTR1 072325Z 35011KT 02/00 A3045 RMK A01 T00220004  RH  088%=      5-min Rain = 0
KTR1 072326Z 35011KT 02/00 A3045 RMK A01 T00220004  RH  088%=      5-min Rain = 0
KTR1 072327Z 35012KT 02/01 A3045 RMK A01 T00220005  RH  088%=      5-min Rain = 0
KTR1 072328Z 35010KT 02/01 A3046 RMK A01 T00220005  RH  088%=      5-min Rain = 0
KTR1 072329Z 36012KT 02/00 A3046 RMK A01 T00220004  RH  088%=      5-min Rain = 0
KTR1 072330Z 36011KT 02/00 A3046 RMK A01 T00220004  RH  088%=      5-min Rain = 0
KTR1 072331Z 00013KT 02/00 A3046 RMK A01 T00220001  RH  086%=      5-min Rain = 0
KTR1 072332Z 36012KT 02/00 A3046 RMK A01 T002100-0  RH  086%=      5-min Rain = 0
KTR1 072333Z 00015KT 02/M00 A3046 RMK A01 T00211002  RH  085%=      5-min Rain = 0
KTR1 072334Z 36015KT 02/M01 A3046 RMK A01 T00211005  RH  083%=      5-min Rain = 0
KTR1 072335Z 00015KT 02/M01 A3046 RMK A01 T00201008  RH  082%=      5-min Rain = 0
KTR1 072336Z 36012KT 02/M01 A3046 RMK A01 T00201008  RH  082%=      5-min Rain = 0
KTR1 072337Z 01012KT 02/M01 A3046 RMK A01 T00201007  RH  082%=      5-min Rain = 0
KTR1 072338Z 36010G16KT 02/M01 A3046 RMK A01 T00201006  RH  083%=      5-min Rain = 0
KTR1 072339Z 00013KT 02/M01 A3046 RMK A01 T00201007  RH  082%=      5-min Rain = 0
KTR1 072340Z 36013KT 02/M01 A3046 RMK A01 T00201009  RH  081%=      5-min Rain = 0
KTR1 072341Z 00013KT 02/M01 A3046 RMK A01 T00201010  RH  081%=      5-min Rain = 0
KTR1 072342Z 00012KT 02/M01 A3046 RMK A01 T00201010  RH  081%=      5-min Rain = 0
KTR1 072343Z 00010KT 02/M01 A3046 RMK A01 T00201008  RH  082%=      5-min Rain = 0
KTR1 072344Z 01010KT 02/M01 A3046 RMK A01 T00201008  RH  082%=      5-min Rain = 0
KTR1 072345Z 00009KT 02/M01 A3046 RMK A01 T00201007  RH  083%=      5-min Rain = 0
KTR1 072346Z 00009KT 02/M01 A3046 RMK A01 T00201006  RH  083%=      5-min Rain = 0
KTR1 072347Z 35012KT 02/M01 A3046 RMK A01 T00191007  RH  083%=      5-min Rain = 0
KTR1 072348Z 35010KT 02/M01 A3047 RMK A01 T00201007  RH  083%=      5-min Rain = 0
KTR1 072349Z 36010KT 02/M01 A3047 RMK A01 T00191007  RH  082%=      5-min Rain = 0
KTR1 072350Z 36008KT 02/M01 A3047 RMK A01 T00201007  RH  083%=      5-min Rain = 0
KTR1 072351Z 36008KT 02/M00 A3047 RMK A01 T00201004  RH  084%=      5-min Rain = 0
KTR1 072352Z 36010KT 02/M01 A3047 RMK A01 T00201005  RH  083%=      5-min Rain = 0
KTR1 072353Z 35009KT 02/M01 A3046 RMK A01 T00201006  RH  083%=      5-min Rain = 0
KTR1 072354Z 36010KT 02/M01 A3046 RMK A01 T00201005  RH  083%=      5-min Rain = 0
KTR1 072355Z 36009KT 02/M01 A3046 RMK A01 T00201005  RH  083%=      5-min Rain = 0
KTR1 072356Z 36009KT 02/M00 A3046 RMK A01 T00201004  RH  084%=      5-min Rain = 0
KTR1 072357Z 35010KT 02/M01 A3046 RMK A01 T00201005  RH  084%=      5-min Rain = 0
KTR1 072358Z 34010KT 02/M01 A3046 RMK A01 T00201005  RH  083%=      5-min Rain = 0
KTR1 072359Z 36009KT 02/M00 A3047 RMK A01 T00201004  RH  084%=      5-min Rain = 0
KTR1 080000Z 35010KT 02/M00 A3047 RMK A01 T00201004  RH  084%=      5-min Rain = 0
KTR1 080001Z 35009KT 02/M00 A3047 RMK A01 T00201004  RH  084%=      5-min Rain = 0
KTR1 080002Z 35009KT 02/M00 A3047 RMK A01 T00201004  RH  084%=      5-min Rain = 0
KTR1 080003Z 35008KT 02/M00 A3047 RMK A01 T00201003  RH  085%=      5-min Rain = 0
KTR1 080004Z 35008KT 02/M00 A3047 RMK A01 T00201002  RH  085%=      5-min Rain = 0
KTR1 080005Z 35008KT 02/M00 A3047 RMK A01 T00201003  RH  085%=      5-min Rain = 0
KTR1 080006Z 34006KT 02/M00 A3047 RMK A01 T00211002  RH  085%=      5-min Rain = 0
KTR1 080007Z 35005KT 02/M00 A3047 RMK A01 T00211001  RH  086%=      5-min Rain = 0
KTR1 080008Z 34007KT 02/00 A3047 RMK A01 T00210000  RH  086%=      5-min Rain = 0
KTR1 080009Z 35009KT 02/00 A3047 RMK A01 T002100-0  RH  086%=      5-min Rain = 0
KTR1 080010Z 35009KT 02/M00 A3047 RMK A01 T00211002  RH  085%=      5-min Rain = 0
KTR1 080011Z 34011KT 02/M00 A3047 RMK A01 T00221003  RH  084%=      5-min Rain = 0
KTR1 080012Z 35011KT 02/M01 A3047 RMK A01 T00211006  RH  082%=      5-min Rain = 0
KTR1 080013Z 34008KT 02/M01 A3047 RMK A01 T00211006  RH  082%=      5-min Rain = 0
KTR1 080014Z 35009KT 02/M00 A3047 RMK A01 T00211003  RH  084%=      5-min Rain = 0
KTR1 080015Z 34007KT 02/M00 A3047 RMK A01 T00211003  RH  084%=      5-min Rain = 0
KTR1 080016Z 35009KT 02/M00 A3047 RMK A01 T00211004  RH  084%=      5-min Rain = 0
KTR1 080017Z 35008KT 02/M00 A3047 RMK A01 T00211003  RH  084%=      5-min Rain = 0
KTR1 080018Z 35008KT 02/M00 A3047 RMK A01 T00211004  RH  084%=      5-min Rain = 0
KTR1 080019Z 35007KT 02/M00 A3047 RMK A01 T00211003  RH  084%=      5-min Rain = 0
KTR1 080020Z 35009KT 02/M00 A3047 RMK A01 T00211003  RH  084%=      5-min Rain = 0
KTR1 080021Z 35009KT 02/M00 A3047 RMK A01 T00211002  RH  084%=      5-min Rain = 0
KTR1 080022Z 35008KT 02/M00 A3047 RMK A01 T00211004  RH  083%=      5-min Rain = 0
KTR1 080023Z 35007KT 02/M00 A3047 RMK A01 T00211003  RH  084%=      5-min Rain = 0
KTR1 080024Z 36010KT 02/M00 A3047 RMK A01 T00211002  RH  085%=      5-min Rain = 0
KTR1 080025Z 35008KT 02/M00 A3047 RMK A01 T00211003  RH  084%=      5-min Rain = 0
KTR1 080026Z 35008G13KT 02/M00 A3047 RMK A01 T00211002  RH  085%=      5-min Rain = 0
KTR1 080027Z 35011KT 02/M00 A3047 RMK A01 T00211004  RH  083%=      5-min Rain = 0
KTR1 080028Z 35010KT 02/M01 A3047 RMK A01 T00211006  RH  082%=      5-min Rain = 0
KTR1 080029Z 35008KT 02/M01 A3047 RMK A01 T00211005  RH  083%=      5-min Rain = 0
KTR1 080030Z 35008KT 02/M00 A3047 RMK A01 T00211004  RH  084%=      5-min Rain = 0
KTR1 080031Z 36009KT 02/M00 A3047 RMK A01 T00211004  RH  083%=      5-min Rain = 0
KTR1 080032Z 35010KT 02/M01 A3047 RMK A01 T00211006  RH  082%=      5-min Rain = 0
KTR1 080033Z 35007KT 02/M01 A3047 RMK A01 T00211006  RH  082%=      5-min Rain = 0
KTR1 080034Z 35009KT 02/M00 A3047 RMK A01 T00211004  RH  083%=      5-min Rain = 0
KTR1 080035Z 35010KT 02/M01 A3047 RMK A01 T00211006  RH  082%=      5-min Rain = 0
KTR1 080036Z 35008G13KT 02/M01 A3047 RMK A01 T00211006  RH  082%=      5-min Rain = 0
KTR1 080037Z 35011KT 02/M01 A3047 RMK A01 T00211007  RH  082%=      5-min Rain = 0
KTR1 080038Z 34011KT 02/M01 A3047 RMK A01 T00221008  RH  081%=      5-min Rain = 0
KTR1 080039Z 35011KT 02/M01 A3047 RMK A01 T00211008  RH  081%=      5-min Rain = 0
KTR1 080040Z 36011KT 02/M01 A3047 RMK A01 T00211008  RH  081%=      5-min Rain = 0
KTR1 080041Z 35011KT 02/M01 A3047 RMK A01 T00211008  RH  081%=      5-min Rain = 0
KTR1 080042Z 35008KT 02/M01 A3047 RMK A01 T00211008  RH  081%=      5-min Rain = 0
KTR1 080043Z 35007KT 02/M00 A3047 RMK A01 T00211004  RH  083%=      5-min Rain = 0
KTR1 080044Z 35010KT 02/M01 A3047 RMK A01 T00211005  RH  083%=      5-min Rain = 0
KTR1 080045Z 35009KT 02/M01 A3047 RMK A01 T00211005  RH  082%=      5-min Rain = 0
KTR1 080046Z 35009KT 02/M01 A3047 RMK A01 T00211006  RH  082%=      5-min Rain = 0
KTR1 080047Z 35009KT 02/M01 A3047 RMK A01 T00211006  RH  082%=      5-min Rain = 0
KTR1 080048Z 35009KT 02/M01 A3047 RMK A01 T00211006  RH  082%=      5-min Rain = 0
KTR1 080049Z 35008KT 02/M01 A3047 RMK A01 T00211005  RH  083%=      5-min Rain = 0
KTR1 080050Z 35010KT 02/M01 A3047 RMK A01 T00211005  RH  083%=      5-min Rain = 0
KTR1 080051Z 35011KT 02/M01 A3047 RMK A01 T00211005  RH  082%=      5-min Rain = 0
KTR1 080052Z 35011KT 02/M01 A3047 RMK A01 T00211006  RH  082%=      5-min Rain = 0
KTR1 080053Z 35011KT 02/M01 A3047 RMK A01 T00211007  RH  081%=      5-min Rain = 0
KTR1 080054Z 35009KT 02/M01 A3047 RMK A01 T00211006  RH  082%=      5-min Rain = 0
KTR1 080055Z 36007KT 02/M01 A3047 RMK A01 T00211005  RH  083%=      5-min Rain = 0
KTR1 080056Z 35010KT 02/M00 A3047 RMK A01 T00221004  RH  083%=      5-min Rain = 0
KTR1 080057Z 35010KT 02/M01 A3047 RMK A01 T00221005  RH  082%=      5-min Rain = 0
KTR1 080058Z 36010KT 02/M01 A3047 RMK A01 T00221005  RH  082%=      5-min Rain = 0
KTR1 080059Z 36008KT 02/M01 A3047 RMK A01 T00221006  RH  082%=      5-min Rain = 0
KTR1 080100Z 01007KT 02/M00 A3047 RMK A01 T00221004  RH  083%=      5-min Rain = 0
KTR1 080101Z 01007KT 02/M00 A3047 RMK A01 T00221002  RH  084%=      5-min Rain = 0
KTR1 080102Z 00007KT 02/M00 A3047 RMK A01 T00221002  RH  084%=      5-min Rain = 0
KTR1 080103Z 01007KT 02/M00 A3047 RMK A01 T00221003  RH  083%=      5-min Rain = 0
KTR1 080104Z 00008KT 02/M00 A3047 RMK A01 T00221003  RH  083%=      5-min Rain = 0
KTR1 080105Z 00008KT 02/M00 A3047 RMK A01 T00231004  RH  082%=      5-min Rain = 0
KTR1 080106Z 01009KT 02/M00 A3047 RMK A01 T00231004  RH  082%=      5-min Rain = 0
KTR1 080107Z 01009KT 02/M01 A3047 RMK A01 T00231005  RH  082%=      5-min Rain = 0
KTR1 080108Z 36008KT 02/M01 A3047 RMK A01 T00231005  RH  082%=      5-min Rain = 0
KTR1 080109Z 35008KT 02/M00 A3048 RMK A01 T00231004  RH  082%=      5-min Rain = 0
KTR1 080110Z 36009KT 02/M01 A3048 RMK A01 T00231005  RH  082%=      5-min Rain = 0
KTR1 080111Z 00005KT 02/M01 A3048 RMK A01 T00231005  RH  082%=      5-min Rain = 0
KTR1 080112Z 00009KT 02/M00 A3048 RMK A01 T00231003  RH  083%=      5-min Rain = 0
KTR1 080113Z 36011KT 02/M01 A3048 RMK A01 T00231006  RH  081%=      5-min Rain = 0
KTR1 080114Z 00009KT 02/M01 A3048 RMK A01 T00231007  RH  080%=      5-min Rain = 0
KTR1 080115Z 36007KT 02/M01 A3048 RMK A01 T00231006  RH  081%=      5-min Rain = 0
KTR1 080116Z 00008KT 02/M01 A3048 RMK A01 T00241005  RH  081%=      5-min Rain = 0
KTR1 080117Z 01009KT 02/M01 A3048 RMK A01 T00241006  RH  081%=      5-min Rain = 0
KTR1 080118Z 00009KT 02/M01 A3048 RMK A01 T00241006  RH  081%=      5-min Rain = 0
KTR1 080119Z 00010KT 02/M01 A3048 RMK A01 T00241006  RH  081%=      5-min Rain = 0
KTR1 080120Z 00009KT 02/M01 A3048 RMK A01 T00241007  RH  080%=      5-min Rain = 0
KTR1 080121Z 00010KT 02/M01 A3048 RMK A01 T00241007  RH  080%=      5-min Rain = 0
KTR1 080122Z 01009KT 02/M01 A3048 RMK A01 T00241008  RH  080%=      5-min Rain = 0
KTR1 080123Z 36009KT 02/M01 A3048 RMK A01 T00241008  RH  079%=      5-min Rain = 0
KTR1 080124Z 00008KT 02/M01 A3048 RMK A01 T00241007  RH  080%=      5-min Rain = 0
KTR1 080125Z 01007KT 02/M01 A3048 RMK A01 T00241007  RH  080%=      5-min Rain = 0
KTR1 080126Z 00010KT 02/M01 A3048 RMK A01 T00241006  RH  080%=      5-min Rain = 0
KTR1 080127Z 00008KT 02/M01 A3048 RMK A01 T00241008  RH  080%=      5-min Rain = 0
KTR1 080128Z 00008KT 02/M01 A3048 RMK A01 T00241007  RH  080%=      5-min Rain = 0
KTR1 080129Z 00010KT 02/M01 A3048 RMK A01 T00241007  RH  080%=      5-min Rain = 0
KTR1 080130Z 01009KT 02/M01 A3048 RMK A01 T00241009  RH  079%=      5-min Rain = 0
KTR1 080131Z 01008KT 03/M01 A3048 RMK A01 T00251010  RH  078%=      5-min Rain = 0
KTR1 080132Z 01007KT 03/M01 A3048 RMK A01 T00251009  RH  079%=      5-min Rain = 0
KTR1 080133Z 01009KT 03/M01 A3048 RMK A01 T00251008  RH  079%=      5-min Rain = 0
KTR1 080134Z 01009KT 03/M01 A3048 RMK A01 T00251010  RH  078%=      5-min Rain = 0
KTR1 080135Z 00008KT 03/M01 A3048 RMK A01 T00251009  RH  078%=      5-min Rain = 0
KTR1 080136Z 00008KT 02/M01 A3048 RMK A01 T00241009  RH  079%=      5-min Rain = 0
KTR1 080137Z 36007KT 03/M01 A3048 RMK A01 T00251008  RH  079%=      5-min Rain = 0
KTR1 080138Z 35009KT 03/M01 A3048 RMK A01 T00251006  RH  080%=      5-min Rain = 0
KTR1 080139Z 36009KT 03/M01 A3048 RMK A01 T00251007  RH  079%=      5-min Rain = 0
KTR1 080140Z 00008KT 03/M01 A3048 RMK A01 T00251007  RH  079%=      5-min Rain = 0
KTR1 080141Z 01010KT 03/M01 A3048 RMK A01 T00251008  RH  079%=      5-min Rain = 0
KTR1 080142Z 00008KT 03/M01 A3048 RMK A01 T00251008  RH  079%=      5-min Rain = 0
KTR1 080143Z 00007KT 03/M01 A3048 RMK A01 T00251007  RH  080%=      5-min Rain = 0
KTR1 080144Z 36010KT 03/M01 A3048 RMK A01 T00251006  RH  080%=      5-min Rain = 0
KTR1 080145Z 36008KT 03/M01 A3048 RMK A01 T00251009  RH  078%=      5-min Rain = 0
KTR1 080146Z 36007KT 03/M01 A3048 RMK A01 T00251008  RH  079%=      5-min Rain = 0
KTR1 080147Z 00007KT 03/M01 A3048 RMK A01 T00251007  RH  079%=      5-min Rain = 0
KTR1 080148Z 00011KT 03/M01 A3048 RMK A01 T00251007  RH  079%=      5-min Rain = 0
KTR1 080149Z 01010KT 03/M01 A3048 RMK A01 T00251009  RH  078%=      5-min Rain = 0
KTR1 080150Z 00010KT 03/M01 A3048 RMK A01 T00251009  RH  078%=      5-min Rain = 0
KTR1 080151Z 35009KT 03/M01 A3048 RMK A01 T00251010  RH  078%=      5-min Rain = 0
KTR1 080152Z 35008KT 03/M01 A3048 RMK A01 T00251008  RH  079%=      5-min Rain = 0
KTR1 080153Z 35008KT 03/M01 A3048 RMK A01 T00261008  RH  079%=      5-min Rain = 0
KTR1 080154Z 36009KT 03/M01 A3048 RMK A01 T00261008  RH  079%=      5-min Rain = 0
KTR1 080155Z 36009KT 03/M01 A3049 RMK A01 T00261009  RH  078%=      5-min Rain = 0
KTR1 080156Z 35008KT 03/M01 A3049 RMK A01 T00261009  RH  078%=      5-min Rain = 0
KTR1 080157Z 35010KT 03/M01 A3049 RMK A01 T00261008  RH  078%=      5-min Rain = 0
KTR1 080158Z 00007KT 03/M01 A3049 RMK A01 T00261009  RH  078%=      5-min Rain = 0
KTR1 080159Z 35008KT 03/M01 A3049 RMK A01 T00261008  RH  078%=      5-min Rain = 0
KTR1 080200Z 00009KT 03/M01 A3049 RMK A01 T00261010  RH  077%=      5-min Rain = 0
KTR1 080201Z 01010KT 03/M01 A3049 RMK A01 T00261012  RH  076%=      5-min Rain = 0
KTR1 080202Z 36008KT 03/M01 A3049 RMK A01 T00261011  RH  077%=      5-min Rain = 0
KTR1 080203Z 36009KT 03/M01 A3049 RMK A01 T00261010  RH  077%=      5-min Rain = 0
KTR1 080204Z 00010KT 03/M01 A3049 RMK A01 T00261009  RH  078%=      5-min Rain = 0
KTR1 080205Z 36009KT 03/M01 A3049 RMK A01 T00261010  RH  077%=      5-min Rain = 0
KTR1 080206Z 35009KT 03/M01 A3048 RMK A01 T00261010  RH  077%=      5-min Rain = 0
KTR1 080207Z 36010KT 03/M01 A3048 RMK A01 T00261011  RH  076%=      5-min Rain = 0
KTR1 080208Z 00009KT 03/M01 A3049 RMK A01 T00261012  RH  076%=      5-min Rain = 0
KTR1 080209Z 36010KT 03/M01 A3049 RMK A01 T00261012  RH  076%=      5-min Rain = 0
KTR1 080210Z 36011KT 03/M01 A3048 RMK A01 T00261012  RH  076%=      5-min Rain = 0
KTR1 080211Z 00011KT 03/M01 A3048 RMK A01 T00261013  RH  075%=      5-min Rain = 0
KTR1 080212Z 36010KT 03/M01 A3048 RMK A01 T00261013  RH  075%=      5-min Rain = 0
KTR1 080213Z 36010KT 03/M01 A3048 RMK A01 T00261013  RH  075%=      5-min Rain = 0
KTR1 080214Z 00010KT 03/M01 A3048 RMK A01 T00261012  RH  076%=      5-min Rain = 0
KTR1 080215Z 36009KT 03/M01 A3048 RMK A01 T00271012  RH  076%=      5-min Rain = 0
KTR1 080216Z 00009KT 03/M01 A3048 RMK A01 T00261012  RH  076%=      5-min Rain = 0
KTR1 080217Z 00009KT 03/M01 A3048 RMK A01 T00261011  RH  076%=      5-min Rain = 0
KTR1 080218Z 00010KT 03/M01 A3048 RMK A01 T00261013  RH  075%=      5-min Rain = 0
KTR1 080219Z 36009KT 03/M01 A3048 RMK A01 T00261012  RH  076%=      5-min Rain = 0
KTR1 080220Z 36012KT 03/M01 A3048 RMK A01 T00261013  RH  075%=      5-min Rain = 0
KTR1 080221Z 01011KT 03/M02 A3048 RMK A01 T00261015  RH  074%=      5-min Rain = 0
KTR1 080222Z 36010KT 03/M01 A3048 RMK A01 T00261013  RH  076%=      5-min Rain = 0
KTR1 080223Z 01010KT 03/M01 A3048 RMK A01 T00261014  RH  075%=      5-min Rain = 0
KTR1 080224Z 00011KT 03/M01 A3048 RMK A01 T00261014  RH  075%=      5-min Rain = 0
KTR1 080225Z 36009KT 03/M02 A3048 RMK A01 T00261016  RH  074%=      5-min Rain = 0
KTR1 080226Z 36009KT 03/M01 A3048 RMK A01 T00261014  RH  075%=      5-min Rain = 0
KTR1 080227Z 36008KT 03/M01 A3048 RMK A01 T00271013  RH  075%=      5-min Rain = 0
KTR1 080228Z 36008KT 03/M01 A3048 RMK A01 T00261013  RH  075%=      5-min Rain = 0
KTR1 080229Z 36008KT 03/M01 A3048 RMK A01 T00261013  RH  075%=      5-min Rain = 0
KTR1 080230Z 00008KT 03/M01 A3048 RMK A01 T00261013  RH  076%=      5-min Rain = 0
KTR1 080231Z 36010KT 03/M01 A3048 RMK A01 T00261014  RH  075%=      5-min Rain = 0
KTR1 080232Z 36009KT 03/M01 A3048 RMK A01 T00261014  RH  075%=      5-min Rain = 0
KTR1 080233Z 36009KT 03/M01 A3048 RMK A01 T00261012  RH  076%=      5-min Rain = 0
KTR1 080234Z 35009KT 03/M01 A3048 RMK A01 T00261013  RH  075%=      5-min Rain = 0
KTR1 080235Z 00009KT 03/M01 A3048 RMK A01 T00261013  RH  076%=      5-min Rain = 0
KTR1 080236Z 36009KT 03/M01 A3048 RMK A01 T00261013  RH  076%=      5-min Rain = 0
KTR1 080237Z 35008KT 03/M01 A3048 RMK A01 T00261013  RH  075%=      5-min Rain = 0
KTR1 080238Z 00008KT 03/M01 A3048 RMK A01 T00261012  RH  076%=      5-min Rain = 0
KTR1 080239Z 01007KT 03/M01 A3048 RMK A01 T00261011  RH  076%=      5-min Rain = 0
KTR1 080240Z 00009KT 03/M01 A3048 RMK A01 T00261010  RH  077%=      5-min Rain = 0
KTR1 080241Z 01010KT 03/M01 A3048 RMK A01 T00261014  RH  075%=      5-min Rain = 0
KTR1 080242Z 00008KT 03/M02 A3048 RMK A01 T00261016  RH  074%=      5-min Rain = 0
KTR1 080243Z 00009KT 03/M01 A3048 RMK A01 T00261014  RH  075%=      5-min Rain = 0
KTR1 080244Z 36011KT 03/M02 A3048 RMK A01 T00271015  RH  074%=      5-min Rain = 0
KTR1 080245Z 01011KT 03/M02 A3048 RMK A01 T00261016  RH  074%=      5-min Rain = 0
KTR1 080246Z 01010KT 03/M02 A3048 RMK A01 T00261016  RH  074%=      5-min Rain = 0
KTR1 080247Z 01009KT 03/M02 A3048 RMK A01 T00261015  RH  074%=      5-min Rain = 0
KTR1 080248Z 01010KT 03/M02 A3048 RMK A01 T00261016  RH  074%=      5-min Rain = 0
KTR1 080249Z 00010KT 03/M02 A3048 RMK A01 T00261017  RH  073%=      5-min Rain = 0
KTR1 080250Z 01008KT 03/M02 A3048 RMK A01 T00261016  RH  074%=      5-min Rain = 0
KTR1 080251Z 00008KT 03/M02 A3048 RMK A01 T00261015  RH  074%=      5-min Rain = 0
KTR1 080252Z 01010KT 03/M02 A3048 RMK A01 T00261015  RH  074%=      5-min Rain = 0
KTR1 080253Z 01008KT 03/M02 A3047 RMK A01 T00261017  RH  073%=      5-min Rain = 0
KTR1 080254Z 01009KT 03/M02 A3047 RMK A01 T00261016  RH  073%=      5-min Rain = 0
KTR1 080255Z 01010KT 03/M02 A3047 RMK A01 T00261017  RH  073%=      5-min Rain = 0
KTR1 080256Z 01009KT 03/M02 A3048 RMK A01 T00261016  RH  074%=      5-min Rain = 0
KTR1 080257Z 01009KT 03/M02 A3048 RMK A01 T00261017  RH  073%=      5-min Rain = 0
KTR1 080258Z 35007KT 03/M02 A3048 RMK A01 T00261016  RH  074%=      5-min Rain = 0
KTR1 080259Z 36008KT 03/M01 A3048 RMK A01 T00261014  RH  075%=      5-min Rain = 0
KTR1 080300Z 00009KT 03/M02 A3048 RMK A01 T00261016  RH  074%=      5-min Rain = 0
KTR1 080301Z 00008KT 03/M02 A3048 RMK A01 T00261017  RH  074%=      5-min Rain = 0
KTR1 080302Z 36009KT 03/M02 A3048 RMK A01 T00261017  RH  074%=      5-min Rain = 0
KTR1 080303Z 00008KT 03/M02 A3048 RMK A01 T00261016  RH  074%=      5-min Rain = 0
KTR1 080304Z 00007KT 03/M02 A3048 RMK A01 T00261016  RH  074%=      5-min Rain = 0
KTR1 080305Z 00007KT 03/M02 A3048 RMK A01 T00261015  RH  075%=      5-min Rain = 0
KTR1 080306Z 36009KT 03/M02 A3048 RMK A01 T00261015  RH  074%=      5-min Rain = 0
KTR1 080307Z 36007KT 03/M02 A3048 RMK A01 T00261016  RH  074%=      5-min Rain = 0
KTR1 080308Z 36007KT 03/M02 A3048 RMK A01 T00261015  RH  074%=      5-min Rain = 0
KTR1 080309Z 36007KT 03/M02 A3048 RMK A01 T00261016  RH  074%=      5-min Rain = 0
KTR1 080310Z 36006KT 03/M01 A3048 RMK A01 T00261014  RH  075%=      5-min Rain = 0
KTR1 080311Z 35007KT 03/M01 A3048 RMK A01 T00261013  RH  076%=      5-min Rain = 0
KTR1 080312Z 36007KT 03/M01 A3048 RMK A01 T00261014  RH  075%=      5-min Rain = 0
KTR1 080313Z 36008KT 03/M02 A3048 RMK A01 T00261015  RH  075%=      5-min Rain = 0
KTR1 080314Z 36007KT 03/M02 A3048 RMK A01 T00261016  RH  074%=      5-min Rain = 0
KTR1 080315Z 35006KT 03/M02 A3048 RMK A01 T00261015  RH  075%=      5-min Rain = 0
KTR1 080316Z 00006KT 03/M01 A3048 RMK A01 T00261013  RH  075%=      5-min Rain = 0
KTR1 080317Z 36006KT 03/M01 A3048 RMK A01 T00261013  RH  075%=      5-min Rain = 0
KTR1 080318Z 36006KT 03/M01 A3049 RMK A01 T00261013  RH  076%=      5-min Rain = 0
KTR1 080319Z 36006KT 03/M01 A3048 RMK A01 T00261013  RH  075%=      5-min Rain = 0
KTR1 080320Z 36006KT 03/M01 A3048 RMK A01 T00261012  RH  076%=      5-min Rain = 0
KTR1 080321Z 36006KT 03/M01 A3048 RMK A01 T00271011  RH  076%=      5-min Rain = 0
KTR1 080322Z 35006KT 03/M01 A3048 RMK A01 T00261012  RH  076%=      5-min Rain = 0
KTR1 080323Z 35005KT 03/M01 A3048 RMK A01 T00261010  RH  077%=      5-min Rain = 0
KTR1 080324Z 35007KT 03/M01 A3049 RMK A01 T00271010  RH  077%=      5-min Rain = 0
KTR1 080325Z 35007KT 03/M01 A3049 RMK A01 T00261011  RH  076%=      5-min Rain = 0
KTR1 080326Z 35007KT 03/M01 A3049 RMK A01 T00261012  RH  076%=      5-min Rain = 0
KTR1 080327Z 36006KT 03/M01 A3049 RMK A01 T00271011  RH  076%=      5-min Rain = 0
KTR1 080328Z 36007KT 03/M01 A3049 RMK A01 T00271010  RH  077%=      5-min Rain = 0
KTR1 080329Z 35008KT 03/M01 A3049 RMK A01 T00271011  RH  076%=      5-min Rain = 0
KTR1 080330Z 36008KT 03/M01 A3049 RMK A01 T00271013  RH  075%=      5-min Rain = 0
KTR1 080331Z 36008KT 03/M01 A3049 RMK A01 T00271013  RH  075%=      5-min Rain = 0
KTR1 080332Z 35007KT 03/M01 A3048 RMK A01 T00271012  RH  075%=      5-min Rain = 0
KTR1 080333Z 35008KT 03/M01 A3048 RMK A01 T00271012  RH  076%=      5-min Rain = 0
KTR1 080334Z 36007KT 03/M01 A3048 RMK A01 T00271012  RH  076%=      5-min Rain = 0
KTR1 080335Z 36006KT 03/M01 A3048 RMK A01 T00271012  RH  075%=      5-min Rain = 0
KTR1 080336Z 00006KT 03/M01 A3048 RMK A01 T00271011  RH  076%=      5-min Rain = 0
KTR1 080337Z 35007KT 03/M01 A3049 RMK A01 T00271011  RH  076%=      5-min Rain = 0
KTR1 080338Z 35006KT 03/M01 A3049 RMK A01 T00271011  RH  076%=      5-min Rain = 0
KTR1 080339Z 35006KT 03/M01 A3049 RMK A01 T00271009  RH  077%=      5-min Rain = 0
KTR1 080340Z 35006KT 03/M01 A3049 RMK A01 T00271009  RH  077%=      5-min Rain = 0
KTR1 080341Z 36008KT 03/M01 A3049 RMK A01 T00271010  RH  077%=      5-min Rain = 0
KTR1 080342Z 36008KT 03/M01 A3049 RMK A01 T00271012  RH  075%=      5-min Rain = 0
KTR1 080343Z 36007KT 03/M01 A3049 RMK A01 T00271013  RH  075%=      5-min Rain = 0
KTR1 080344Z 35007KT 03/M01 A3049 RMK A01 T00281012  RH  075%=      5-min Rain = 0
KTR1 080345Z 36007KT 03/M01 A3049 RMK A01 T00281012  RH  075%=      5-min Rain = 0
KTR1 080346Z 35006KT 03/M01 A3049 RMK A01 T00281011  RH  076%=      5-min Rain = 0
KTR1 080347Z 35006KT 03/M01 A3049 RMK A01 T00281010  RH  076%=      5-min Rain = 0
KTR1 080348Z 35005KT 03/M01 A3049 RMK A01 T00281010  RH  076%=      5-min Rain = 0
KTR1 080349Z 35007KT 03/M01 A3049 RMK A01 T00281010  RH  076%=      5-min Rain = 0
KTR1 080350Z 35006KT 03/M01 A3049 RMK A01 T00281011  RH  076%=      5-min Rain = 0
KTR1 080351Z 35006KT 03/M01 A3049 RMK A01 T00281010  RH  076%=      5-min Rain = 0
KTR1 080352Z 35007KT 03/M01 A3049 RMK A01 T00281009  RH  076%=      5-min Rain = 0
KTR1 080353Z 35005KT 03/M01 A3049 RMK A01 T00281011  RH  076%=      5-min Rain = 0
KTR1 080354Z 35005KT 03/M01 A3049 RMK A01 T00281009  RH  077%=      5-min Rain = 0
KTR1 080355Z 35005KT 03/M01 A3049 RMK A01 T00281009  RH  076%=      5-min Rain = 0
KTR1 080356Z 35005KT 03/M01 A3049 RMK A01 T00281008  RH  077%=      5-min Rain = 0
KTR1 080357Z 35006KT 03/M01 A3049 RMK A01 T00281008  RH  077%=      5-min Rain = 0
KTR1 080358Z 35006KT 03/M01 A3049 RMK A01 T00281010  RH  076%=      5-min Rain = 0
KTR1 080359Z 35006KT 03/M01 A3049 RMK A01 T00281010  RH  076%=      5-min Rain = 0
KTR1 080400Z 35006KT 03/M01 A3049 RMK A01 T00281010  RH  076%=      5-min Rain = 0
KTR1 080401Z 35005KT 03/M01 A3049 RMK A01 T00281010  RH  076%=      5-min Rain = 0
KTR1 080402Z 34005KT 03/M01 A305 RMK A01 T00281009  RH  077%=      5-min Rain = 0
KTR1 080403Z 34006KT 03/M01 A305 RMK A01 T00281009  RH  076%=      5-min Rain = 0
KTR1 080404Z 35005KT 03/M01 A305 RMK A01 T00281008  RH  077%=      5-min Rain = 0
KTR1 080405Z 35006KT 03/M01 A305 RMK A01 T00281009  RH  077%=      5-min Rain = 0
KTR1 080406Z 35005KT 03/M01 A305 RMK A01 T00281008  RH  077%=      5-min Rain = 0
KTR1 080407Z 35005KT 03/M01 A305 RMK A01 T00281007  RH  077%=      5-min Rain = 0
KTR1 080408Z 34005KT 03/M01 A305 RMK A01 T00281008  RH  077%=      5-min Rain = 0
KTR1 080409Z 35005KT 03/M01 A3049 RMK A01 T00281008  RH  077%=      5-min Rain = 0
KTR1 080410Z 35005KT 03/M01 A3049 RMK A01 T00281008  RH  077%=      5-min Rain = 0
KTR1 080411Z 35006KT 03/M01 A3049 RMK A01 T00281006  RH  078%=      5-min Rain = 0
KTR1 080412Z 35005KT 03/M01 A3049 RMK A01 T00281007  RH  078%=      5-min Rain = 0
KTR1 080413Z 35006KT 03/M01 A3049 RMK A01 T00281008  RH  077%=      5-min Rain = 0
KTR1 080414Z 35006KT 03/M01 A3049 RMK A01 T00281007  RH  077%=      5-min Rain = 0
KTR1 080415Z 35006KT 03/M01 A3049 RMK A01 T00291006  RH  078%=      5-min Rain = 0
KTR1 080416Z 35005KT 03/M01 A3049 RMK A01 T00281008  RH  077%=      5-min Rain = 0
KTR1 080417Z 35006KT 03/M01 A3049 RMK A01 T00281007  RH  078%=      5-min Rain = 0
KTR1 080418Z 35005KT 03/M01 A3049 RMK A01 T00281008  RH  077%=      5-min Rain = 0
KTR1 080419Z 35006KT 03/M01 A3049 RMK A01 T00281006  RH  078%=      5-min Rain = 0
KTR1 080420Z 35006KT 03/M01 A3049 RMK A01 T00281008  RH  077%=      5-min Rain = 0
KTR1 080421Z 35006KT 03/M01 A3049 RMK A01 T00281007  RH  077%=      5-min Rain = 0
KTR1 080422Z 35006KT 03/M01 A3049 RMK A01 T00291006  RH  078%=      5-min Rain = 0
KTR1 080423Z 35007KT 03/M01 A3049 RMK A01 T00291008  RH  077%=      5-min Rain = 0
KTR1 080424Z 35007KT 03/M01 A3049 RMK A01 T00291008  RH  077%=      5-min Rain = 0
KTR1 080425Z 35006KT 03/M01 A3049 RMK A01 T00291007  RH  077%=      5-min Rain = 0
KTR1 080426Z 35006KT 03/M01 A3049 RMK A01 T00291007  RH  077%=      5-min Rain = 0
KTR1 080427Z 35006KT 03/M01 A3049 RMK A01 T00291008  RH  077%=      5-min Rain = 0
KTR1 080428Z 34006KT 03/M01 A305 RMK A01 T00291008  RH  077%=      5-min Rain = 0
KTR1 080429Z 34005KT 03/M01 A305 RMK A01 T00291007  RH  078%=      5-min Rain = 0
KTR1 080430Z 34006KT 03/M01 A305 RMK A01 T00291006  RH  078%=      5-min Rain = 0
KTR1 080431Z 34006KT 03/M01 A305 RMK A01 T00291008  RH  077%=      5-min Rain = 0
KTR1 080432Z 34006KT 03/M01 A305 RMK A01 T00291008  RH  076%=      5-min Rain = 0
KTR1 080433Z 34006KT 03/M01 A305 RMK A01 T00291008  RH  077%=      5-min Rain = 0
KTR1 080434Z 34006KT 03/M01 A305 RMK A01 T00291007  RH  077%=      5-min Rain = 0
KTR1 080435Z 34005KT 03/M01 A305 RMK A01 T00291006  RH  078%=      5-min Rain = 0
KTR1 080436Z 35005KT 03/M01 A305 RMK A01 T00291005  RH  078%=      5-min Rain = 0
KTR1 080437Z 34005KT 03/M01 A305 RMK A01 T00291006  RH  078%=      5-min Rain = 0
KTR1 080438Z 35006KT 03/M01 A305 RMK A01 T00291006  RH  078%=      5-min Rain = 0
KTR1 080439Z 35006KT 03/M01 A305 RMK A01 T00291007  RH  077%=      5-min Rain = 0
KTR1 080440Z 33005KT 03/M01 A305 RMK A01 T00291008  RH  076%=      5-min Rain = 0
KTR1 080441Z 34006KT 03/M01 A305 RMK A01 T00301007  RH  077%=      5-min Rain = 0
KTR1 080442Z 34005KT 03/M01 A305 RMK A01 T00301008  RH  077%=      5-min Rain = 0
KTR1 080443Z 34005KT 03/M01 A305 RMK A01 T00301007  RH  077%=      5-min Rain = 0
KTR1 080444Z 33006KT 03/M01 A305 RMK A01 T00301006  RH  077%=      5-min Rain = 0
KTR1 080445Z 34006KT 03/M01 A305 RMK A01 T00301008  RH  076%=      5-min Rain = 0
KTR1 080446Z 33005KT 03/M01 A305 RMK A01 T00301007  RH  077%=      5-min Rain = 0
KTR1 080447Z 33005KT 03/M01 A305 RMK A01 T00291006  RH  077%=      5-min Rain = 0
KTR1 080448Z 34004KT 03/M01 A305 RMK A01 T00301006  RH  077%=      5-min Rain = 0
KTR1 080449Z 33005KT 03/M01 A305 RMK A01 T00291005  RH  078%=      5-min Rain = 0
KTR1 080450Z 34005KT 03/M01 A305 RMK A01 T00301006  RH  078%=      5-min Rain = 0
KTR1 080451Z 34006KT 03/M01 A305 RMK A01 T00301006  RH  077%=      5-min Rain = 0
KTR1 080452Z 34006KT 03/M01 A305 RMK A01 T00301006  RH  077%=      5-min Rain = 0
KTR1 080453Z 34005KT 03/M01 A305 RMK A01 T00301006  RH  077%=      5-min Rain = 0
KTR1 080454Z 34006KT 03/M01 A305 RMK A01 T00301007  RH  076%=      5-min Rain = 0
KTR1 080455Z 34005KT 03/M01 A305 RMK A01 T00301008  RH  076%=      5-min Rain = 0
KTR1 080456Z 34005KT 03/M01 A305 RMK A01 T00301009  RH  076%=      5-min Rain = 0
KTR1 080457Z 35005KT 03/M01 A305 RMK A01 T00301008  RH  076%=      5-min Rain = 0
KTR1 080458Z 35005KT 03/M01 A305 RMK A01 T00301007  RH  076%=      5-min Rain = 0
KTR1 080459Z 35006KT 03/M01 A305 RMK A01 T00301008  RH  076%=      5-min Rain = 0
KTR1 080500Z 35006KT 03/M01 A305 RMK A01 T00301009  RH  076%=      5-min Rain = 0
KTR1 080501Z 35005KT 03/M01 A305 RMK A01 T00301008  RH  076%=      5-min Rain = 0
KTR1 080502Z 35006KT 03/M01 A305 RMK A01 T00301007  RH  077%=      5-min Rain = 0
KTR1 080503Z 35006KT 03/M01 A305 RMK A01 T00301009  RH  075%=      5-min Rain = 0
KTR1 080504Z 35004KT 03/M01 A305 RMK A01 T00301008  RH  076%=      5-min Rain = 0
KTR1 080505Z 35006KT 03/M01 A305 RMK A01 T00301009  RH  076%=      5-min Rain = 0
KTR1 080506Z 34007KT 03/M01 A305 RMK A01 T00311008  RH  076%=      5-min Rain = 0
KTR1 080507Z 34006KT 03/M01 A305 RMK A01 T00311011  RH  074%=      5-min Rain = 0
KTR1 080508Z 34006KT 03/M01 A305 RMK A01 T00301012  RH  074%=      5-min Rain = 0
KTR1 080509Z 34006KT 03/M01 A305 RMK A01 T00301010  RH  075%=      5-min Rain = 0
KTR1 080510Z 35006KT 03/M01 A305 RMK A01 T00301009  RH  075%=      5-min Rain = 0
KTR1 080511Z 33005KT 03/M01 A305 RMK A01 T00301009  RH  075%=      5-min Rain = 0
KTR1 080512Z 34006KT 03/M01 A305 RMK A01 T00311007  RH  076%=      5-min Rain = 0
KTR1 080513Z 34006KT 03/M01 A305 RMK A01 T00311008  RH  076%=      5-min Rain = 0
KTR1 080514Z 34005KT 03/M01 A305 RMK A01 T00311007  RH  076%=      5-min Rain = 0
KTR1 080515Z 34006KT 03/M01 A3049 RMK A01 T00311007  RH  076%=      5-min Rain = 0
KTR1 080516Z 35005KT 03/M01 A3049 RMK A01 T00311007  RH  076%=      5-min Rain = 0
KTR1 080517Z 34005KT 03/M01 A3049 RMK A01 T00311008  RH  076%=      5-min Rain = 0
KTR1 080518Z 35005KT 03/M01 A3049 RMK A01 T00311007  RH  076%=      5-min Rain = 0
KTR1 080519Z 35005KT 03/M01 A3049 RMK A01 T00311008  RH  076%=      5-min Rain = 0
KTR1 080520Z 34005KT 03/M01 A3049 RMK A01 T00311008  RH  076%=      5-min Rain = 0
KTR1 080521Z 34006KT 03/M01 A3049 RMK A01 T00311009  RH  075%=      5-min Rain = 0
KTR1 080522Z 34006KT 03/M01 A3049 RMK A01 T00311010  RH  074%=      5-min Rain = 0
KTR1 080523Z 35005KT 03/M01 A3049 RMK A01 T00311011  RH  074%=      5-min Rain = 0
KTR1 080524Z 34005KT 03/M01 A3049 RMK A01 T00311010  RH  074%=      5-min Rain = 0
KTR1 080525Z 34006KT 03/M01 A3049 RMK A01 T00311009  RH  075%=      5-min Rain = 0
KTR1 080526Z 35006KT 03/M01 A3049 RMK A01 T00311010  RH  075%=      5-min Rain = 0
KTR1 080527Z 35006KT 03/M01 A3049 RMK A01 T00311009  RH  075%=      5-min Rain = 0
KTR1 080528Z 34007KT 03/M01 A3049 RMK A01 T00311011  RH  074%=      5-min Rain = 0
KTR1 080529Z 35006KT 03/M01 A3049 RMK A01 T00311012  RH  074%=      5-min Rain = 0
KTR1 080530Z 35007KT 03/M01 A3049 RMK A01 T00311011  RH  074%=      5-min Rain = 0
KTR1 080531Z 35007KT 03/M01 A3049 RMK A01 T00311011  RH  074%=      5-min Rain = 0
KTR1 080532Z 35007KT 03/M01 A3049 RMK A01 T00311012  RH  073%=      5-min Rain = 0
KTR1 080533Z 35006KT 03/M01 A3049 RMK A01 T00311012  RH  073%=      5-min Rain = 0
KTR1 080534Z 35006KT 03/M01 A3049 RMK A01 T00311011  RH  074%=      5-min Rain = 0
KTR1 080535Z 34005KT 03/M01 A3048 RMK A01 T00311011  RH  074%=      5-min Rain = 0
KTR1 080536Z 35006KT 03/M01 A3048 RMK A01 T00311010  RH  075%=      5-min Rain = 0
KTR1 080537Z 35007KT 03/M01 A3048 RMK A01 T00311009  RH  075%=      5-min Rain = 0
KTR1 080538Z 35006KT 03/M01 A3048 RMK A01 T00311010  RH  075%=      5-min Rain = 0
KTR1 080539Z 35007KT 03/M01 A3048 RMK A01 T00311010  RH  075%=      5-min Rain = 0
KTR1 080540Z 35006KT 03/M01 A3048 RMK A01 T00311011  RH  074%=      5-min Rain = 0
KTR1 080541Z 35006KT 03/M01 A3048 RMK A01 T00311010  RH  074%=      5-min Rain = 0
KTR1 080542Z 35006KT 03/M01 A3048 RMK A01 T00311011  RH  074%=      5-min Rain = 0
KTR1 080543Z 35006KT 03/M01 A3048 RMK A01 T00311011  RH  074%=      5-min Rain = 0
KTR1 080544Z 35006KT 03/M01 A3048 RMK A01 T00311013  RH  073%=      5-min Rain = 0
KTR1 080545Z 35007KT 03/M01 A3048 RMK A01 T00311014  RH  072%=      5-min Rain = 0
KTR1 080546Z 36006KT 03/M01 A3048 RMK A01 T00321014  RH  072%=      5-min Rain = 0
KTR1 080547Z 36005KT 03/M02 A3048 RMK A01 T00311015  RH  072%=      5-min Rain = 0
KTR1 080548Z 00005KT 03/M01 A3048 RMK A01 T00311013  RH  073%=      5-min Rain = 0
KTR1 080549Z 36006KT 03/M01 A3048 RMK A01 T00321012  RH  073%=      5-min Rain = 0
KTR1 080550Z 36006KT 03/M01 A3048 RMK A01 T00311013  RH  073%=      5-min Rain = 0
KTR1 080551Z 00006KT 03/M01 A3048 RMK A01 T00311013  RH  073%=      5-min Rain = 0
KTR1 080552Z 00006KT 03/M01 A3048 RMK A01 T00311013  RH  073%=      5-min Rain = 0
KTR1 080553Z 36006KT 03/M01 A3048 RMK A01 T00311013  RH  073%=      5-min Rain = 0
KTR1 080554Z 35006KT 03/M01 A3048 RMK A01 T00311014  RH  072%=      5-min Rain = 0
KTR1 080555Z 35006KT 03/M02 A3048 RMK A01 T00311015  RH  072%=      5-min Rain = 0
KTR1 080556Z 00005KT 03/M02 A3048 RMK A01 T00311015  RH  072%=      5-min Rain = 0
KTR1 080557Z 35005KT 03/M01 A3048 RMK A01 T00321013  RH  073%=      5-min Rain = 0
KTR1 080558Z 35004KT 03/M01 A3048 RMK A01 T00321014  RH  072%=      5-min Rain = 0
KTR1 080559Z 34004KT 03/M01 A3048 RMK A01 T00321014  RH  072%=      5-min Rain = 0

Page generated in 0.0724 seconds.